Time,TemperatureF,DewpointF,PressureIn,WindDirection,WindDirectionDegrees,WindSpeedMPH,WindSpeedGustMPH,Humidity,HourlyPrecipIn,Conditions,Clouds,dailyrainin,SoftwareType,DateUTC
2013-03-09 00:00:00,30.5,26.0,30.06,East,98,3.0,5.0,83,0.00,,,0.04,Wunderground v.1.13,2013-03-09 06:00:00,
2013-03-09 00:01:00,30.5,26.0,30.06,ESE,109,3.0,5.0,83,0.00,,,0.04,Wunderground v.1.13,2013-03-09 06:01:00,
2013-03-09 00:04:00,30.6,26.1,30.05,East,86,4.0,5.0,83,0.00,,,0.00,Wunderground v.1.13,2013-03-09 06:04:00,
2013-03-09 00:06:00,30.7,26.1,30.06,East,92,4.0,5.0,83,0.00,,,0.00,Wunderground v.1.13,2013-03-09 06:06:00,
2013-03-09 00:09:00,30.8,26.0,30.06,East,95,4.0,6.0,82,0.00,,,0.00,Wunderground v.1.13,2013-03-09 06:09:00,
2013-03-09 00:10:00,30.8,26.0,30.06,East,95,4.0,4.0,82,0.00,,,0.00,Wunderground v.1.13,2013-03-09 06:10:00,
2013-03-09 00:14:00,30.9,26.1,30.06,East,95,4.0,4.0,82,0.00,,,0.00,Wunderground v.1.13,2013-03-09 06:14:00,
2013-03-09 00:15:00,30.9,26.1,30.06,East,95,4.0,4.0,82,0.00,,,0.00,Wunderground v.1.13,2013-03-09 06:15:00,
2013-03-09 00:17:00,30.9,26.1,30.06,East,95,3.0,5.0,82,0.00,,,0.00,Wunderground v.1.13,2013-03-09 06:17:00,
2013-03-09 00:22:00,30.9,26.1,30.06,East,96,3.0,5.0,82,0.00,,,0.00,Wunderground v.1.13,2013-03-09 06:22:00,
2013-03-09 00:24:00,31.0,26.1,30.06,East,95,3.0,6.0,82,0.00,,,0.00,Wunderground v.1.13,2013-03-09 06:24:00,
2013-03-09 00:26:00,31.0,26.1,30.06,East,96,4.0,5.0,82,0.00,,,0.00,Wunderground v.1.13,2013-03-09 06:26:00,
2013-03-09 00:27:00,31.1,26.2,30.06,East,95,4.0,5.0,82,0.00,,,0.00,Wunderground v.1.13,2013-03-09 06:27:00,
2013-03-09 00:29:00,31.1,26.2,30.06,East,96,4.0,5.0,82,0.00,,,0.00,Wunderground v.1.13,2013-03-09 06:29:00,
2013-03-09 00:33:00,31.3,26.4,30.06,East,96,5.0,6.0,82,0.00,,,0.00,Wunderground v.1.13,2013-03-09 06:33:00,
2013-03-09 00:35:00,31.3,26.4,30.06,East,96,4.0,5.0,82,0.00,,,0.00,Wunderground v.1.13,2013-03-09 06:35:00,
2013-03-09 00:36:00,31.3,26.4,30.06,East,96,4.0,5.0,82,0.00,,,0.00,Wunderground v.1.13,2013-03-09 06:36:00,
2013-03-09 00:38:00,31.2,26.3,30.05,East,96,4.0,5.0,82,0.00,,,0.00,Wunderground v.1.13,2013-03-09 06:38:00,
2013-03-09 00:40:00,31.2,26.3,30.05,East,97,4.0,4.0,82,0.00,,,0.00,Wunderground v.1.13,2013-03-09 06:40:00,
2013-03-09 00:43:00,31.1,26.2,30.06,East,97,4.0,4.0,82,0.00,,,0.00,Wunderground v.1.13,2013-03-09 06:43:00,
2013-03-09 00:44:00,31.1,26.2,30.06,East,97,4.0,5.0,82,0.00,,,0.00,Wunderground v.1.13,2013-03-09 06:44:00,
2013-03-09 00:48:00,31.1,26.2,30.06,East,97,4.0,6.0,82,0.00,,,0.00,Wunderground v.1.13,2013-03-09 06:48:00,
2013-03-09 00:51:00,31.1,26.2,30.05,East,98,4.0,4.0,82,0.00,,,0.00,Wunderground v.1.13,2013-03-09 06:51:00,
2013-03-09 00:52:00,31.1,26.2,30.05,East,98,4.0,4.0,82,0.00,,,0.00,Wunderground v.1.13,2013-03-09 06:52:00,
2013-03-09 00:54:00,31.1,26.2,30.05,East,99,4.0,5.0,82,0.00,,,0.00,Wunderground v.1.13,2013-03-09 06:54:00,
2013-03-09 00:56:00,31.2,26.3,30.05,ESE,109,4.0,6.0,82,0.00,,,0.00,Wunderground v.1.13,2013-03-09 06:56:00,
2013-03-09 01:00:00,31.4,26.5,30.05,ESE,112,5.0,8.0,82,0.00,,,0.00,Wunderground v.1.13,2013-03-09 07:00:00,
2013-03-09 01:01:00,31.4,26.5,30.05,ESE,113,5.0,8.0,82,0.00,,,0.00,Wunderground v.1.13,2013-03-09 07:01:00,
2013-03-09 01:05:00,31.4,26.5,30.05,ESE,113,5.0,5.0,82,0.00,,,0.00,Wunderground v.1.13,2013-03-09 07:05:00,
2013-03-09 01:07:00,31.4,26.5,30.05,ESE,113,4.0,5.0,82,0.00,,,0.00,Wunderground v.1.13,2013-03-09 07:07:00,
2013-03-09 01:09:00,31.4,26.5,30.04,ESE,110,4.0,5.0,82,0.00,,,0.00,Wunderground v.1.13,2013-03-09 07:09:00,
2013-03-09 01:13:00,31.4,26.5,30.04,ESE,105,4.0,6.0,82,0.00,,,0.00,Wunderground v.1.13,2013-03-09 07:13:00,
2013-03-09 01:14:00,31.4,26.5,30.04,ESE,105,4.0,6.0,82,0.00,,,0.00,Wunderground v.1.13,2013-03-09 07:14:00,
2013-03-09 01:15:00,31.4,26.5,30.04,ESE,105,4.0,5.0,82,0.00,,,0.00,Wunderground v.1.13,2013-03-09 07:15:00,
2013-03-09 01:18:00,31.4,26.5,30.04,ESE,105,4.0,5.0,82,0.00,,,0.00,Wunderground v.1.13,2013-03-09 07:18:00,
2013-03-09 01:21:00,31.4,26.5,30.04,ESE,105,4.0,4.0,82,0.00,,,0.00,Wunderground v.1.13,2013-03-09 07:21:00,
2013-03-09 01:27:00,31.4,26.5,30.03,ESE,105,4.0,5.0,82,0.00,,,0.00,Wunderground v.1.13,2013-03-09 07:27:00,
2013-03-09 01:28:00,31.5,26.6,30.03,ESE,105,4.0,5.0,82,0.00,,,0.00,Wunderground v.1.13,2013-03-09 07:28:00,
2013-03-09 01:30:00,31.5,26.6,30.03,ESE,105,4.0,4.0,82,0.00,,,0.00,Wunderground v.1.13,2013-03-09 07:30:00,
2013-03-09 01:32:00,31.5,26.6,30.03,ESE,105,4.0,5.0,82,0.00,,,0.00,Wunderground v.1.13,2013-03-09 07:32:00,
2013-03-09 01:33:00,31.5,26.6,30.03,ESE,105,4.0,5.0,82,0.00,,,0.00,Wunderground v.1.13,2013-03-09 07:33:00,
2013-03-09 01:34:00,31.5,26.6,30.03,ESE,105,4.0,5.0,82,0.00,,,0.00,Wunderground v.1.13,2013-03-09 07:34:00,
2013-03-09 01:37:00,31.6,26.7,30.03,ESE,103,4.0,5.0,82,0.00,,,0.00,Wunderground v.1.13,2013-03-09 07:37:00,
2013-03-09 01:39:00,31.6,26.4,30.03,ESE,103,4.0,5.0,81,0.00,,,0.00,Wunderground v.1.13,2013-03-09 07:39:00,
2013-03-09 01:40:00,31.6,26.4,30.03,ESE,103,4.0,5.0,81,0.00,,,0.00,Wunderground v.1.13,2013-03-09 07:40:00,
2013-03-09 01:43:00,31.6,26.4,30.02,East,101,4.0,6.0,81,0.00,,,0.00,Wunderground v.1.13,2013-03-09 07:43:00,
2013-03-09 01:46:00,31.6,26.4,30.02,East,86,3.0,4.0,81,0.00,,,0.00,Wunderground v.1.13,2013-03-09 07:46:00,
2013-03-09 01:47:00,31.7,26.5,30.02,East,90,3.0,4.0,81,0.00,,,0.00,Wunderground v.1.13,2013-03-09 07:47:00,
2013-03-09 01:51:00,31.8,26.6,30.02,East,83,3.0,5.0,81,0.00,,,0.00,Wunderground v.1.13,2013-03-09 07:51:00,
2013-03-09 01:52:00,31.8,26.6,30.02,East,94,3.0,5.0,81,0.00,,,0.00,Wunderground v.1.13,2013-03-09 07:52:00,
2013-03-09 01:54:00,31.8,26.6,30.02,East,88,3.0,5.0,81,0.00,,,0.00,Wunderground v.1.13,2013-03-09 07:54:00,
2013-03-09 01:55:00,31.8,26.6,30.01,East,98,4.0,7.0,81,0.00,,,0.00,Wunderground v.1.13,2013-03-09 07:55:00,
2013-03-09 01:59:00,31.9,26.7,30.01,East,101,5.0,8.0,81,0.00,,,0.00,Wunderground v.1.13,2013-03-09 07:59:00,
2013-03-09 02:00:00,31.9,26.7,30.01,ESE,103,5.0,5.0,81,0.00,,,0.00,Wunderground v.1.13,2013-03-09 08:00:00,
2013-03-09 02:02:00,32.0,26.8,30.01,ESE,123,5.0,7.0,81,0.00,,,0.00,Wunderground v.1.13,2013-03-09 08:02:00,
2013-03-09 02:05:00,32.0,26.8,30.01,East,93,5.0,5.0,81,0.00,,,0.00,Wunderground v.1.13,2013-03-09 08:05:00,
2013-03-09 02:07:00,32.1,26.9,30.01,ESE,118,6.0,6.0,81,0.00,,,0.00,Wunderground v.1.13,2013-03-09 08:07:00,
2013-03-09 02:09:00,32.1,26.9,30.00,ESE,114,5.0,7.0,81,0.00,,,0.00,Wunderground v.1.13,2013-03-09 08:09:00,
2013-03-09 02:11:00,32.1,26.9,30.00,ESE,102,6.0,8.0,81,0.00,,,0.00,Wunderground v.1.13,2013-03-09 08:11:00,
2013-03-09 02:15:00,32.3,27.1,30.00,ESE,106,6.0,7.0,81,0.00,,,0.00,Wunderground v.1.13,2013-03-09 08:15:00,
2013-03-09 02:17:00,32.3,27.1,30.00,ESE,120,6.0,7.0,81,0.00,,,0.00,Wunderground v.1.13,2013-03-09 08:17:00,
2013-03-09 02:19:00,32.3,27.1,30.00,ESE,111,6.0,7.0,81,0.00,,,0.00,Wunderground v.1.13,2013-03-09 08:19:00,
2013-03-09 02:21:00,32.3,27.1,30.00,ESE,116,6.0,8.0,81,0.00,,,0.00,Wunderground v.1.13,2013-03-09 08:21:00,
2013-03-09 02:24:00,32.3,27.1,30.00,SE,130,6.0,8.0,81,0.00,,,0.00,Wunderground v.1.13,2013-03-09 08:24:00,
2013-03-09 02:26:00,32.4,27.2,30.00,ESE,120,7.0,7.0,81,0.00,,,0.00,Wunderground v.1.13,2013-03-09 08:26:00,
2013-03-09 02:29:00,32.3,27.1,30.00,ESE,119,6.0,7.0,81,0.00,,,0.00,Wunderground v.1.13,2013-03-09 08:29:00,
2013-03-09 02:30:00,32.4,27.2,30.00,SE,129,6.0,8.0,81,0.00,,,0.00,Wunderground v.1.13,2013-03-09 08:30:00,
2013-03-09 02:32:00,32.4,27.2,30.00,SE,126,6.0,8.0,81,0.00,,,0.00,Wunderground v.1.13,2013-03-09 08:32:00,
2013-03-09 02:36:00,32.3,27.4,29.99,ESE,113,6.0,6.0,82,0.00,,,0.00,Wunderground v.1.13,2013-03-09 08:36:00,
2013-03-09 02:38:00,32.3,27.7,29.99,ESE,118,6.0,6.0,83,0.00,,,0.00,Wunderground v.1.13,2013-03-09 08:38:00,
2013-03-09 02:39:00,32.3,27.7,29.99,ESE,120,6.0,7.0,83,0.00,,,0.00,Wunderground v.1.13,2013-03-09 08:39:00,
2013-03-09 02:42:00,32.2,27.6,29.99,ESE,122,6.0,6.0,83,0.00,,,0.00,Wunderground v.1.13,2013-03-09 08:42:00,
2013-03-09 02:45:00,32.2,27.9,29.99,ESE,119,6.0,6.0,84,0.00,,,0.00,Wunderground v.1.13,2013-03-09 08:45:00,
2013-03-09 02:46:00,32.1,28.1,29.99,SE,125,6.0,6.0,85,0.00,,,0.00,Wunderground v.1.13,2013-03-09 08:46:00,
2013-03-09 02:48:00,32.1,28.1,29.98,ESE,113,6.0,8.0,85,0.00,,,0.00,Wunderground v.1.13,2013-03-09 08:48:00,
2013-03-09 02:51:00,32.1,28.1,29.98,ESE,118,6.0,8.0,85,0.00,,,0.00,Wunderground v.1.13,2013-03-09 08:51:00,
2013-03-09 02:55:00,32.0,29.9,29.98,ESE,109,6.0,6.0,92,0.00,,,0.00,Wunderground v.1.13,2013-03-09 08:55:00,
2013-03-09 02:57:00,32.0,28.3,29.98,ESE,114,7.0,8.0,86,0.00,,,0.00,Wunderground v.1.13,2013-03-09 08:57:00,
2013-03-09 03:01:00,32.0,28.6,29.97,ESE,115,6.0,6.0,87,0.00,,,0.00,Wunderground v.1.13,2013-03-09 09:01:00,
2013-03-09 03:03:00,32.0,28.6,29.97,ESE,115,6.0,6.0,87,0.00,,,0.00,Wunderground v.1.13,2013-03-09 09:03:00,
2013-03-09 03:07:00,32.0,28.6,29.97,ESE,111,6.0,8.0,87,0.00,,,0.00,Wunderground v.1.13,2013-03-09 09:07:00,
2013-03-09 03:10:00,32.0,28.6,29.97,ESE,117,6.0,6.0,87,0.00,,,0.00,Wunderground v.1.13,2013-03-09 09:10:00,
2013-03-09 03:12:00,32.0,28.8,29.97,ESE,112,6.0,8.0,88,0.00,,,0.00,Wunderground v.1.13,2013-03-09 09:12:00,
2013-03-09 03:16:00,32.1,28.9,29.97,SE,126,7.0,7.0,88,0.00,,,0.00,Wunderground v.1.13,2013-03-09 09:16:00,
2013-03-09 03:18:00,32.0,28.8,29.96,ESE,118,6.0,7.0,88,0.00,,,0.00,Wunderground v.1.13,2013-03-09 09:18:00,
2013-03-09 03:22:00,32.1,28.9,29.95,ESE,123,6.0,7.0,88,0.00,,,0.00,Wunderground v.1.13,2013-03-09 09:22:00,
2013-03-09 03:24:00,32.1,28.9,29.96,ESE,106,6.0,8.0,88,0.00,,,0.00,Wunderground v.1.13,2013-03-09 09:24:00,
2013-03-09 03:26:00,32.1,28.9,29.96,ESE,105,7.0,7.0,88,0.00,,,0.00,Wunderground v.1.13,2013-03-09 09:26:00,
2013-03-09 03:28:00,32.1,28.9,29.95,ESE,111,7.0,8.0,88,0.00,,,0.00,Wunderground v.1.13,2013-03-09 09:28:00,
2013-03-09 03:31:00,32.1,29.2,29.95,ESE,123,7.0,7.0,89,0.00,,,0.00,Wunderground v.1.13,2013-03-09 09:31:00,
2013-03-09 03:32:00,32.1,29.2,29.95,ESE,121,7.0,7.0,89,0.00,,,0.00,Wunderground v.1.13,2013-03-09 09:32:00,
2013-03-09 03:34:00,32.1,29.2,29.95,SE,124,7.0,10.0,89,0.00,,,0.00,Wunderground v.1.13,2013-03-09 09:34:00,
2013-03-09 03:37:00,32.2,29.3,29.95,ESE,121,8.0,10.0,89,0.00,,,0.00,Wunderground v.1.13,2013-03-09 09:37:00,
2013-03-09 03:38:00,32.2,29.3,29.95,ESE,121,8.0,10.0,89,0.00,,,0.00,Wunderground v.1.13,2013-03-09 09:38:00,
2013-03-09 03:43:00,32.3,29.4,29.95,ESE,115,9.0,11.0,89,0.00,,,0.00,Wunderground v.1.13,2013-03-09 09:43:00,
2013-03-09 03:45:00,32.2,29.3,29.95,ESE,107,8.0,8.0,89,0.00,,,0.00,Wunderground v.1.13,2013-03-09 09:45:00,
2013-03-09 03:48:00,32.2,29.6,29.95,ESE,122,9.0,10.0,90,0.00,,,0.00,Wunderground v.1.13,2013-03-09 09:48:00,
2013-03-09 03:49:00,32.2,29.6,29.95,ESE,111,8.0,10.0,90,0.00,,,0.00,Wunderground v.1.13,2013-03-09 09:49:00,
2013-03-09 03:53:00,32.2,29.6,29.94,ESE,115,8.0,13.0,90,0.00,,,0.00,Wunderground v.1.13,2013-03-09 09:53:00,
2013-03-09 03:54:00,32.2,29.6,29.94,ESE,112,8.0,13.0,90,0.00,,,0.00,Wunderground v.1.13,2013-03-09 09:54:00,
2013-03-09 03:58:00,32.3,29.7,29.94,SE,128,8.0,9.0,90,0.00,,,0.00,Wunderground v.1.13,2013-03-09 09:58:00,
2013-03-09 04:00:00,32.2,29.6,29.94,ESE,109,9.0,9.0,90,0.00,,,0.00,Wunderground v.1.13,2013-03-09 10:00:00,
2013-03-09 04:01:00,32.2,29.6,29.94,ESE,119,9.0,9.0,90,0.00,,,0.00,Wunderground v.1.13,2013-03-09 10:01:00,
2013-03-09 04:06:00,32.3,29.7,29.94,ESE,103,9.0,10.0,90,0.00,,,0.00,Wunderground v.1.13,2013-03-09 10:06:00,
2013-03-09 04:11:00,32.3,29.7,29.94,ESE,117,9.0,11.0,90,0.00,,,0.00,Wunderground v.1.13,2013-03-09 10:11:00,
2013-03-09 04:12:00,32.3,29.7,29.94,ESE,111,9.0,11.0,90,0.00,,,0.00,Wunderground v.1.13,2013-03-09 10:12:00,
2013-03-09 04:13:00,32.3,29.7,29.94,ESE,115,9.0,11.0,90,0.00,,,0.00,Wunderground v.1.13,2013-03-09 10:13:00,
2013-03-09 04:17:00,32.3,30.0,29.94,ESE,122,9.0,9.0,91,0.00,,,0.00,Wunderground v.1.13,2013-03-09 10:17:00,
2013-03-09 04:19:00,32.3,29.7,29.94,ESE,111,9.0,9.0,90,0.00,,,0.00,Wunderground v.1.13,2013-03-09 10:19:00,
2013-03-09 04:21:00,32.3,29.7,29.93,SE,134,8.0,9.0,90,0.00,,,0.00,Wunderground v.1.13,2013-03-09 10:21:00,
2013-03-09 04:25:00,32.3,30.0,29.93,ESE,110,8.0,10.0,91,0.00,,,0.00,Wunderground v.1.13,2013-03-09 10:25:00,
2013-03-09 04:27:00,32.3,30.0,29.93,ESE,117,9.0,10.0,91,0.00,,,0.00,Wunderground v.1.13,2013-03-09 10:27:00,
2013-03-09 04:30:00,32.3,30.0,29.93,ESE,106,8.0,12.0,91,0.00,,,0.00,Wunderground v.1.13,2013-03-09 10:30:00,
2013-03-09 04:32:00,32.3,30.0,29.93,ESE,119,9.0,12.0,91,0.00,,,0.00,Wunderground v.1.13,2013-03-09 10:32:00,
2013-03-09 04:35:00,32.3,30.0,29.93,ESE,123,9.0,10.0,91,0.00,,,0.00,Wunderground v.1.13,2013-03-09 10:35:00,
2013-03-09 04:37:00,32.3,30.0,29.93,SE,130,8.0,11.0,91,0.00,,,0.00,Wunderground v.1.13,2013-03-09 10:37:00,
2013-03-09 04:38:00,32.3,30.0,29.93,ESE,119,8.0,11.0,91,0.00,,,0.00,Wunderground v.1.13,2013-03-09 10:38:00,
2013-03-09 04:40:00,32.3,30.0,29.92,ESE,119,8.0,8.0,91,0.00,,,0.00,Wunderground v.1.13,2013-03-09 10:40:00,
2013-03-09 04:41:00,32.3,30.0,29.92,ESE,117,8.0,8.0,91,0.00,,,0.00,Wunderground v.1.13,2013-03-09 10:41:00,
2013-03-09 04:42:00,32.3,30.0,29.93,ESE,111,8.0,10.0,91,0.00,,,0.00,Wunderground v.1.13,2013-03-09 10:42:00,
2013-03-09 04:46:00,32.3,30.0,29.92,SE,124,8.0,9.0,91,0.00,,,0.00,Wunderground v.1.13,2013-03-09 10:46:00,
2013-03-09 04:47:00,32.3,30.0,29.92,ESE,115,8.0,10.0,91,0.00,,,0.00,Wunderground v.1.13,2013-03-09 10:47:00,
2013-03-09 04:49:00,32.3,30.0,29.92,ESE,121,8.0,12.0,91,0.00,,,0.00,Wunderground v.1.13,2013-03-09 10:49:00,
2013-03-09 04:52:00,32.3,30.2,29.92,ESE,117,8.0,8.0,92,0.00,,,0.00,Wunderground v.1.13,2013-03-09 10:52:00,
2013-03-09 04:53:00,32.3,30.2,29.92,ESE,107,7.0,8.0,92,0.00,,,0.00,Wunderground v.1.13,2013-03-09 10:53:00,
2013-03-09 04:55:00,32.3,30.2,29.92,ESE,117,8.0,8.0,92,0.00,,,0.00,Wunderground v.1.13,2013-03-09 10:55:00,
2013-03-09 04:59:00,32.3,30.2,29.91,ESE,109,8.0,9.0,92,0.00,,,0.00,Wunderground v.1.13,2013-03-09 10:59:00,
2013-03-09 05:00:00,32.4,30.3,29.91,ESE,109,8.0,8.0,92,0.00,,,0.00,Wunderground v.1.13,2013-03-09 11:00:00,
2013-03-09 05:06:00,32.4,30.3,29.91,ESE,116,8.0,8.0,92,0.00,,,0.00,Wunderground v.1.13,2013-03-09 11:06:00,
2013-03-09 05:07:00,32.4,30.3,29.91,ESE,121,8.0,8.0,92,0.00,,,0.00,Wunderground v.1.13,2013-03-09 11:07:00,
2013-03-09 05:11:00,32.4,30.3,29.91,SE,128,8.0,8.0,92,0.00,,,0.00,Wunderground v.1.13,2013-03-09 11:11:00,
2013-03-09 05:13:00,32.4,30.3,29.91,ESE,110,8.0,8.0,92,0.00,,,0.00,Wunderground v.1.13,2013-03-09 11:13:00,
2013-03-09 05:19:00,32.5,30.4,29.91,ESE,123,7.0,9.0,92,0.00,,,0.00,Wunderground v.1.13,2013-03-09 11:19:00,
2013-03-09 05:20:00,32.5,30.4,29.91,ESE,120,7.0,7.0,92,0.00,,,0.00,Wunderground v.1.13,2013-03-09 11:20:00,
2013-03-09 05:25:00,32.5,30.4,29.91,ESE,121,6.0,6.0,92,0.00,,,0.00,Wunderground v.1.13,2013-03-09 11:25:00,
2013-03-09 05:27:00,32.5,30.4,29.91,ESE,121,6.0,7.0,92,0.00,,,0.00,Wunderground v.1.13,2013-03-09 11:27:00,
2013-03-09 05:29:00,32.5,30.4,29.91,ESE,123,5.0,7.0,92,0.00,,,0.00,Wunderground v.1.13,2013-03-09 11:29:00,
2013-03-09 05:31:00,32.5,30.4,29.91,ESE,116,5.0,9.0,92,0.00,,,0.00,Wunderground v.1.13,2013-03-09 11:31:00,
2013-03-09 05:33:00,32.6,30.5,29.90,ESE,121,6.0,9.0,92,0.00,,,0.00,Wunderground v.1.13,2013-03-09 11:33:00,
2013-03-09 05:35:00,32.6,30.5,29.90,ESE,120,7.0,7.0,92,0.00,,,0.00,Wunderground v.1.13,2013-03-09 11:35:00,
2013-03-09 05:39:00,32.6,30.5,29.90,ESE,120,7.0,10.0,92,0.00,,,0.00,Wunderground v.1.13,2013-03-09 11:39:00,
2013-03-09 05:40:00,32.6,30.5,29.91,ESE,117,7.0,7.0,92,0.00,,,0.00,Wunderground v.1.13,2013-03-09 11:40:00,
2013-03-09 05:44:00,32.7,30.6,29.90,ESE,122,7.0,12.0,92,0.00,,,0.00,Wunderground v.1.13,2013-03-09 11:44:00,
2013-03-09 05:45:00,32.7,30.6,29.90,ESE,105,7.0,7.0,92,0.00,,,0.00,Wunderground v.1.13,2013-03-09 11:45:00,
2013-03-09 05:49:00,32.7,30.6,29.91,ESE,123,8.0,8.0,92,0.00,,,0.00,Wunderground v.1.13,2013-03-09 11:49:00,
2013-03-09 05:52:00,32.7,30.6,29.90,ESE,115,7.0,9.0,92,0.00,,,0.00,Wunderground v.1.13,2013-03-09 11:52:00,
2013-03-09 05:55:00,32.8,30.7,29.90,ESE,115,7.0,9.0,92,0.00,,,0.00,Wunderground v.1.13,2013-03-09 11:55:00,
2013-03-09 05:57:00,32.8,30.7,29.90,ESE,122,7.0,9.0,92,0.00,,,0.00,Wunderground v.1.13,2013-03-09 11:57:00,
2013-03-09 05:58:00,32.8,30.7,29.90,ESE,116,7.0,9.0,92,0.00,,,0.00,Wunderground v.1.13,2013-03-09 11:58:00,
2013-03-09 06:03:00,32.8,31.0,29.91,ESE,118,6.0,7.0,93,0.00,,,0.00,Wunderground v.1.13,2013-03-09 12:03:00,
2013-03-09 06:06:00,32.8,31.0,29.90,SE,128,6.0,6.0,93,0.00,,,0.00,Wunderground v.1.13,2013-03-09 12:06:00,
2013-03-09 06:09:00,32.8,31.0,29.90,ESE,121,6.0,9.0,93,0.00,,,0.00,Wunderground v.1.13,2013-03-09 12:09:00,
2013-03-09 06:10:00,32.8,30.7,29.90,ESE,123,6.0,6.0,92,0.00,,,0.00,Wunderground v.1.13,2013-03-09 12:10:00,
2013-03-09 06:11:00,32.8,30.7,29.90,ESE,117,6.0,8.0,92,0.00,,,0.00,Wunderground v.1.13,2013-03-09 12:11:00,
2013-03-09 06:13:00,32.8,30.7,29.90,ESE,121,6.0,8.0,92,0.00,,,0.00,Wunderground v.1.13,2013-03-09 12:13:00,
2013-03-09 06:17:00,32.8,30.7,29.90,ESE,110,7.0,8.0,92,0.00,,,0.00,Wunderground v.1.13,2013-03-09 12:17:00,
2013-03-09 06:19:00,32.9,31.1,29.90,SE,130,7.0,8.0,93,0.00,,,0.00,Wunderground v.1.13,2013-03-09 12:19:00,
2013-03-09 06:21:00,32.8,31.0,29.90,SE,133,7.0,8.0,93,0.00,,,0.00,Wunderground v.1.13,2013-03-09 12:21:00,
2013-03-09 06:22:00,32.8,31.0,29.90,ESE,121,7.0,8.0,93,0.00,,,0.00,Wunderground v.1.13,2013-03-09 12:22:00,
2013-03-09 06:25:00,32.9,31.1,29.90,ESE,123,7.0,7.0,93,0.00,,,0.00,Wunderground v.1.13,2013-03-09 12:25:00,
2013-03-09 06:26:00,32.9,31.1,29.90,ESE,114,7.0,7.0,93,0.00,,,0.00,Wunderground v.1.13,2013-03-09 12:26:00,
2013-03-09 06:29:00,32.9,31.1,29.90,SE,130,7.0,8.0,93,0.00,,,0.00,Wunderground v.1.13,2013-03-09 12:29:00,
2013-03-09 06:30:00,32.9,31.1,29.90,SE,124,7.0,7.0,93,0.00,,,0.00,Wunderground v.1.13,2013-03-09 12:30:00,
2013-03-09 06:35:00,32.8,31.0,29.90,ESE,118,6.0,6.0,93,0.00,,,0.00,Wunderground v.1.13,2013-03-09 12:35:00,
2013-03-09 06:36:00,32.8,31.0,29.90,ESE,118,6.0,6.0,93,0.00,,,0.00,Wunderground v.1.13,2013-03-09 12:36:00,
2013-03-09 06:37:00,32.8,31.0,29.90,ESE,117,6.0,6.0,93,0.00,,,0.00,Wunderground v.1.13,2013-03-09 12:37:00,
2013-03-09 06:40:00,32.8,31.0,29.90,ESE,118,6.0,6.0,93,0.00,,,0.00,Wunderground v.1.13,2013-03-09 12:40:00,
2013-03-09 06:41:00,32.8,31.0,29.90,ESE,117,5.0,6.0,93,0.00,,,0.00,Wunderground v.1.13,2013-03-09 12:41:00,
2013-03-09 06:43:00,32.8,31.0,29.89,ESE,106,5.0,6.0,93,0.00,,,0.00,Wunderground v.1.13,2013-03-09 12:43:00,
2013-03-09 06:47:00,32.8,31.0,29.89,ESE,115,6.0,8.0,93,0.00,,,0.00,Wunderground v.1.13,2013-03-09 12:47:00,
2013-03-09 06:48:00,32.8,31.0,29.89,ESE,111,6.0,8.0,93,0.00,,,0.00,Wunderground v.1.13,2013-03-09 12:48:00,
2013-03-09 06:51:00,32.8,31.0,29.89,ESE,106,6.0,9.0,93,0.00,,,0.00,Wunderground v.1.13,2013-03-09 12:51:00,
2013-03-09 06:54:00,32.7,30.9,29.89,ESE,107,6.0,9.0,93,0.00,,,0.00,Wunderground v.1.13,2013-03-09 12:54:00,
2013-03-09 06:55:00,32.7,30.9,29.89,ESE,107,6.0,6.0,93,0.00,,,0.00,Wunderground v.1.13,2013-03-09 12:55:00,
2013-03-09 06:58:00,32.7,30.9,29.88,ESE,104,6.0,6.0,93,0.00,,,0.00,Wunderground v.1.13,2013-03-09 12:58:00,
2013-03-09 06:59:00,32.7,30.9,29.88,ESE,104,6.0,6.0,93,0.00,,,0.00,Wunderground v.1.13,2013-03-09 12:59:00,
2013-03-09 07:01:00,32.7,30.9,29.88,ESE,105,5.0,6.0,93,0.00,,,0.00,Wunderground v.1.13,2013-03-09 13:01:00,
2013-03-09 07:05:00,32.6,30.8,29.88,ESE,105,5.0,6.0,93,0.00,,,0.00,Wunderground v.1.13,2013-03-09 13:05:00,
2013-03-09 07:06:00,32.6,30.8,29.88,ESE,107,5.0,7.0,93,0.00,,,0.00,Wunderground v.1.13,2013-03-09 13:06:00,
2013-03-09 07:09:00,32.6,30.8,29.88,ESE,107,5.0,7.0,93,0.00,,,0.00,Wunderground v.1.13,2013-03-09 13:09:00,
2013-03-09 07:11:00,32.6,30.8,29.88,ESE,105,5.0,6.0,93,0.00,,,0.00,Wunderground v.1.13,2013-03-09 13:11:00,
2013-03-09 07:12:00,32.6,30.8,29.88,ESE,118,5.0,6.0,93,0.00,,,0.00,Wunderground v.1.13,2013-03-09 13:12:00,
2013-03-09 07:17:00,32.6,30.8,29.87,ESE,116,6.0,9.0,93,0.00,,,0.00,Wunderground v.1.13,2013-03-09 13:17:00,
2013-03-09 07:21:00,32.6,30.8,29.87,ESE,111,6.0,6.0,93,0.00,,,0.00,Wunderground v.1.13,2013-03-09 13:21:00,
2013-03-09 07:22:00,32.6,30.8,29.87,ESE,118,6.0,8.0,93,0.00,,,0.00,Wunderground v.1.13,2013-03-09 13:22:00,
2013-03-09 07:23:00,32.6,30.8,29.87,ESE,105,6.0,8.0,93,0.00,,,0.00,Wunderground v.1.13,2013-03-09 13:23:00,
2013-03-09 07:25:00,32.6,30.8,29.87,ENE,67,6.0,6.0,93,0.00,,,0.00,Wunderground v.1.13,2013-03-09 13:25:00,
2013-03-09 07:30:00,32.6,30.8,29.86,ESE,121,6.0,6.0,93,0.00,,,0.01,Wunderground v.1.13,2013-03-09 13:30:00,
2013-03-09 07:31:00,32.6,30.8,29.86,ESE,118,6.0,6.0,93,0.00,,,0.01,Wunderground v.1.13,2013-03-09 13:31:00,
2013-03-09 07:34:00,32.6,30.8,29.86,ESE,103,6.0,8.0,93,0.00,,,0.01,Wunderground v.1.13,2013-03-09 13:34:00,
2013-03-09 07:37:00,32.7,30.9,29.86,ESE,111,6.0,8.0,93,0.00,,,0.01,Wunderground v.1.13,2013-03-09 13:37:00,
2013-03-09 07:38:00,32.7,30.9,29.86,ESE,111,6.0,8.0,93,0.00,,,0.01,Wunderground v.1.13,2013-03-09 13:38:00,
2013-03-09 07:39:00,32.7,30.9,29.86,ESE,116,6.0,8.0,93,0.00,,,0.01,Wunderground v.1.13,2013-03-09 13:39:00,
2013-03-09 07:40:00,32.7,30.9,29.86,ESE,114,6.0,9.0,93,0.00,,,0.01,Wunderground v.1.13,2013-03-09 13:40:00,
2013-03-09 07:44:00,32.7,30.9,29.86,ESE,117,7.0,9.0,93,0.00,,,0.01,Wunderground v.1.13,2013-03-09 13:44:00,
2013-03-09 07:45:00,32.7,30.9,29.86,SE,125,7.0,7.0,93,0.00,,,0.01,Wunderground v.1.13,2013-03-09 13:45:00,
2013-03-09 07:46:00,32.7,30.9,29.86,ESE,115,7.0,9.0,93,0.00,,,0.01,Wunderground v.1.13,2013-03-09 13:46:00,
2013-03-09 07:49:00,32.8,31.0,29.86,ESE,105,8.0,11.0,93,0.00,,,0.01,Wunderground v.1.13,2013-03-09 13:49:00,
2013-03-09 07:51:00,32.8,31.0,29.85,ESE,111,8.0,8.0,93,0.00,,,0.01,Wunderground v.1.13,2013-03-09 13:51:00,
2013-03-09 07:52:00,32.8,31.0,29.85,ESE,112,8.0,8.0,93,0.00,,,0.01,Wunderground v.1.13,2013-03-09 13:52:00,
2013-03-09 07:54:00,32.9,31.1,29.85,ESE,115,8.0,8.0,93,0.00,,,0.01,Wunderground v.1.13,2013-03-09 13:54:00,
2013-03-09 07:57:00,32.9,31.1,29.85,ESE,119,8.0,9.0,93,0.00,,,0.01,Wunderground v.1.13,2013-03-09 13:57:00,
2013-03-09 07:58:00,32.9,31.1,29.85,ESE,118,8.0,9.0,93,0.00,,,0.01,Wunderground v.1.13,2013-03-09 13:58:00,
2013-03-09 08:04:00,33.0,31.2,29.85,ESE,120,8.0,14.0,93,0.00,,,0.01,Wunderground v.1.13,2013-03-09 14:04:00,
2013-03-09 08:07:00,33.1,31.3,29.85,SE,126,9.0,12.0,93,0.00,,,0.01,Wunderground v.1.13,2013-03-09 14:07:00,
2013-03-09 08:08:00,33.2,31.4,29.85,SE,128,9.0,12.0,93,0.00,,,0.01,Wunderground v.1.13,2013-03-09 14:08:00,
2013-03-09 08:09:00,33.2,31.4,29.85,ESE,123,9.0,12.0,93,0.00,,,0.01,Wunderground v.1.13,2013-03-09 14:09:00,
2013-03-09 08:14:00,33.2,31.4,29.85,SE,125,9.0,12.0,93,0.00,,,0.01,Wunderground v.1.13,2013-03-09 14:14:00,
2013-03-09 08:15:00,33.2,31.4,29.84,ESE,117,9.0,9.0,93,0.00,,,0.01,Wunderground v.1.13,2013-03-09 14:15:00,
2013-03-09 08:17:00,33.3,31.5,29.84,SE,129,9.0,9.0,93,0.00,,,0.01,Wunderground v.1.13,2013-03-09 14:17:00,
2013-03-09 08:21:00,33.4,31.9,29.84,ESE,121,9.0,9.0,94,0.00,,,0.02,Wunderground v.1.13,2013-03-09 14:21:00,
2013-03-09 08:22:00,33.4,31.9,29.85,ESE,114,9.0,9.0,94,0.52,,,0.02,Wunderground v.1.13,2013-03-09 14:22:00,
2013-03-09 08:24:00,33.4,31.9,29.85,ESE,123,9.0,9.0,94,28.80,,,0.26,Wunderground v.1.13,2013-03-09 14:24:00,
2013-03-09 08:25:00,33.4,31.9,29.85,ESE,123,9.0,9.0,94,0.51,,,0.33,Wunderground v.1.13,2013-03-09 14:25:00,
2013-03-09 08:26:00,33.4,31.9,29.84,ESE,118,9.0,13.0,94,0.25,,,0.33,Wunderground v.1.13,2013-03-09 14:26:00,
2013-03-09 08:28:00,33.6,32.1,29.84,SE,125,10.0,13.0,94,0.16,,,0.34,Wunderground v.1.13,2013-03-09 14:28:00,
2013-03-09 08:30:00,33.6,32.1,29.84,ESE,117,9.0,9.0,94,0.16,,,0.34,Wunderground v.1.13,2013-03-09 14:30:00,
2013-03-09 08:32:00,33.6,32.1,29.84,ESE,120,9.0,11.0,94,0.14,,,0.34,Wunderground v.1.13,2013-03-09 14:32:00,
2013-03-09 08:33:00,33.6,32.1,29.84,ESE,121,9.0,11.0,94,0.11,,,0.34,Wunderground v.1.13,2013-03-09 14:33:00,
2013-03-09 08:38:00,33.7,31.9,29.84,SE,129,8.0,11.0,93,0.06,,,0.34,Wunderground v.1.13,2013-03-09 14:38:00,
2013-03-09 08:39:00,33.6,31.8,29.84,ESE,113,8.0,11.0,93,0.05,,,0.34,Wunderground v.1.13,2013-03-09 14:39:00,
2013-03-09 08:43:00,33.7,31.9,29.83,ESE,119,8.0,14.0,93,0.04,,,0.34,Wunderground v.1.13,2013-03-09 14:43:00,
2013-03-09 08:44:00,33.7,31.9,29.84,ESE,118,8.0,14.0,93,0.04,,,0.34,Wunderground v.1.13,2013-03-09 14:44:00,
2013-03-09 08:45:00,33.7,31.9,29.83,ESE,123,8.0,9.0,93,0.00,,,0.34,Wunderground v.1.13,2013-03-09 14:45:00,
2013-03-09 08:48:00,33.7,31.9,29.83,ESE,122,8.0,12.0,93,0.00,,,0.34,Wunderground v.1.13,2013-03-09 14:48:00,
2013-03-09 08:49:00,33.8,32.0,29.83,ESE,123,8.0,12.0,93,0.00,,,0.34,Wunderground v.1.13,2013-03-09 14:49:00,
2013-03-09 08:54:00,33.8,32.0,29.83,SE,130,9.0,12.0,93,0.00,,,0.35,Wunderground v.1.13,2013-03-09 14:54:00,
2013-03-09 08:55:00,33.8,32.0,29.83,ESE,122,9.0,9.0,93,0.00,,,0.35,Wunderground v.1.13,2013-03-09 14:55:00,
2013-03-09 08:57:00,33.8,32.0,29.83,SE,140,9.0,9.0,93,0.00,,,0.35,Wunderground v.1.13,2013-03-09 14:57:00,
2013-03-09 08:58:00,33.7,31.9,29.83,ESE,119,9.0,10.0,93,0.00,,,0.35,Wunderground v.1.13,2013-03-09 14:58:00,
2013-03-09 09:04:00,33.8,32.0,29.83,ESE,121,8.0,12.0,93,0.00,,,0.35,Wunderground v.1.13,2013-03-09 15:04:00,
2013-03-09 09:05:00,33.8,32.0,29.83,ESE,119,8.0,8.0,93,0.00,,,0.35,Wunderground v.1.13,2013-03-09 15:05:00,
2013-03-09 09:10:00,33.8,32.3,29.83,SE,124,8.0,8.0,94,0.00,,,0.35,Wunderground v.1.13,2013-03-09 15:10:00,
2013-03-09 09:11:00,33.8,32.3,29.83,ESE,111,8.0,8.0,94,0.00,,,0.35,Wunderground v.1.13,2013-03-09 15:11:00,
2013-03-09 09:15:00,33.9,32.4,29.82,ESE,121,9.0,10.0,94,0.00,,,0.35,Wunderground v.1.13,2013-03-09 15:15:00,
2013-03-09 09:17:00,33.9,32.4,29.82,ESE,103,9.0,11.0,94,0.00,,,0.35,Wunderground v.1.13,2013-03-09 15:17:00,
2013-03-09 09:18:00,33.9,32.4,29.82,ESE,123,9.0,11.0,94,0.00,,,0.35,Wunderground v.1.13,2013-03-09 15:18:00,
2013-03-09 09:21:00,33.9,32.4,29.82,ESE,123,9.0,12.0,94,0.00,,,0.35,Wunderground v.1.13,2013-03-09 15:21:00,
2013-03-09 09:24:00,33.9,32.4,29.82,SE,125,9.0,12.0,94,0.00,,,0.35,Wunderground v.1.13,2013-03-09 15:24:00,
2013-03-09 09:26:00,34.0,32.5,29.82,SE,132,9.0,12.0,94,0.00,,,0.35,Wunderground v.1.13,2013-03-09 15:26:00,
2013-03-09 09:27:00,34.0,32.5,29.82,SE,126,9.0,12.0,94,0.00,,,0.35,Wunderground v.1.13,2013-03-09 15:27:00,
2013-03-09 09:30:00,33.9,32.4,29.82,ESE,121,10.0,10.0,94,0.00,,,0.35,Wunderground v.1.13,2013-03-09 15:30:00,
2013-03-09 09:31:00,33.9,32.4,29.82,SE,125,10.0,13.0,94,0.00,,,0.35,Wunderground v.1.13,2013-03-09 15:31:00,
2013-03-09 09:34:00,34.0,32.5,29.82,ESE,121,10.0,15.0,94,0.00,,,0.35,Wunderground v.1.13,2013-03-09 15:34:00,
2013-03-09 09:38:00,34.0,32.5,29.81,SE,138,10.0,10.0,94,0.00,,,0.35,Wunderground v.1.13,2013-03-09 15:38:00,
2013-03-09 09:40:00,34.1,32.6,29.81,SE,125,10.0,11.0,94,0.00,,,0.36,Wunderground v.1.13,2013-03-09 15:40:00,
2013-03-09 09:42:00,34.1,32.6,29.81,ESE,118,10.0,11.0,94,0.00,,,0.36,Wunderground v.1.13,2013-03-09 15:42:00,
2013-03-09 09:47:00,34.0,32.5,29.81,ESE,117,9.0,9.0,94,0.00,,,0.36,Wunderground v.1.13,2013-03-09 15:47:00,
2013-03-09 09:48:00,34.0,32.5,29.81,ESE,111,8.0,9.0,94,0.00,,,0.36,Wunderground v.1.13,2013-03-09 15:48:00,
2013-03-09 09:49:00,34.0,32.5,29.81,SE,127,8.0,11.0,94,0.00,,,0.36,Wunderground v.1.13,2013-03-09 15:49:00,
2013-03-09 09:55:00,34.1,32.6,29.81,SE,126,8.0,8.0,94,0.00,,,0.36,Wunderground v.1.13,2013-03-09 15:55:00,
2013-03-09 09:56:00,34.1,32.6,29.80,SE,126,8.0,8.0,94,0.00,,,0.36,Wunderground v.1.13,2013-03-09 15:56:00,
2013-03-09 10:00:00,34.1,32.6,29.80,ESE,123,8.0,8.0,94,0.00,,,0.36,Wunderground v.1.13,2013-03-09 16:00:00,
2013-03-09 10:02:00,34.1,32.6,29.80,SE,125,8.0,11.0,94,0.00,,,0.36,Wunderground v.1.13,2013-03-09 16:02:00,
2013-03-09 10:03:00,34.1,32.6,29.80,ESE,117,8.0,11.0,94,0.00,,,0.36,Wunderground v.1.13,2013-03-09 16:03:00,
2013-03-09 10:08:00,34.1,32.6,29.80,SE,126,7.0,9.0,94,0.00,,,0.36,Wunderground v.1.13,2013-03-09 16:08:00,
2013-03-09 10:10:00,34.1,32.6,29.80,ESE,121,8.0,8.0,94,0.00,,,0.36,Wunderground v.1.13,2013-03-09 16:10:00,
2013-03-09 10:11:00,34.1,32.6,29.80,SE,128,8.0,9.0,94,0.00,,,0.36,Wunderground v.1.13,2013-03-09 16:11:00,
2013-03-09 10:16:00,34.1,32.6,29.81,ESE,114,8.0,9.0,94,0.00,,,0.36,Wunderground v.1.13,2013-03-09 16:16:00,
2013-03-09 10:17:00,34.2,32.7,29.81,ESE,123,8.0,9.0,94,0.00,,,0.36,Wunderground v.1.13,2013-03-09 16:17:00,
2013-03-09 10:19:00,34.2,32.7,29.81,SE,124,8.0,9.0,94,0.00,,,0.36,Wunderground v.1.13,2013-03-09 16:19:00,
2013-03-09 10:22:00,34.2,32.7,29.81,SE,129,7.0,8.0,94,0.00,,,0.36,Wunderground v.1.13,2013-03-09 16:22:00,
2013-03-09 10:25:00,34.2,32.7,29.81,SE,124,8.0,8.0,94,0.00,,,0.36,Wunderground v.1.13,2013-03-09 16:25:00,
2013-03-09 10:27:00,34.2,32.7,29.81,ESE,122,8.0,8.0,94,0.00,,,0.37,Wunderground v.1.13,2013-03-09 16:27:00,
2013-03-09 10:28:00,34.2,32.7,29.81,SE,124,8.0,8.0,94,0.00,,,0.37,Wunderground v.1.13,2013-03-09 16:28:00,
2013-03-09 10:30:00,34.2,32.7,29.81,ESE,117,7.0,8.0,94,0.00,,,0.37,Wunderground v.1.13,2013-03-09 16:30:00,
2013-03-09 10:32:00,34.2,32.7,29.80,SE,133,8.0,8.0,94,0.00,,,0.37,Wunderground v.1.13,2013-03-09 16:32:00,
2013-03-09 10:34:00,34.2,32.7,29.80,SE,126,8.0,10.0,94,0.00,,,0.37,Wunderground v.1.13,2013-03-09 16:34:00,
2013-03-09 10:35:00,34.2,32.7,29.80,ESE,118,8.0,8.0,94,0.00,,,0.37,Wunderground v.1.13,2013-03-09 16:35:00,
2013-03-09 10:39:00,34.2,32.7,29.80,ESE,123,8.0,8.0,94,0.00,,,0.37,Wunderground v.1.13,2013-03-09 16:39:00,
2013-03-09 10:41:00,34.2,32.7,29.80,SE,133,8.0,8.0,94,0.00,,,0.37,Wunderground v.1.13,2013-03-09 16:41:00,
2013-03-09 10:45:00,34.2,32.7,29.80,ESE,123,7.0,7.0,94,0.00,,,0.37,Wunderground v.1.13,2013-03-09 16:45:00,
2013-03-09 10:46:00,34.2,32.7,29.80,SE,130,7.0,7.0,94,0.00,,,0.37,Wunderground v.1.13,2013-03-09 16:46:00,
2013-03-09 10:48:00,34.2,32.7,29.80,ESE,115,7.0,7.0,94,0.00,,,0.37,Wunderground v.1.13,2013-03-09 16:48:00,
2013-03-09 10:53:00,34.3,32.8,29.80,ESE,122,6.0,8.0,94,0.00,,,0.37,Wunderground v.1.13,2013-03-09 16:53:00,
2013-03-09 10:55:00,34.2,32.7,29.80,SE,125,7.0,7.0,94,0.00,,,0.37,Wunderground v.1.13,2013-03-09 16:55:00,
2013-03-09 10:56:00,34.3,32.8,29.80,ESE,118,7.0,7.0,94,0.00,,,0.37,Wunderground v.1.13,2013-03-09 16:56:00,
2013-03-09 10:59:00,34.3,32.8,29.80,SE,126,7.0,7.0,94,0.00,,,0.37,Wunderground v.1.13,2013-03-09 16:59:00,
2013-03-09 11:02:00,34.2,32.7,29.80,ESE,118,7.0,11.0,94,0.00,,,0.37,Wunderground v.1.13,2013-03-09 17:02:00,
2013-03-09 11:04:00,34.2,32.7,29.80,ESE,121,7.0,11.0,94,0.00,,,0.37,Wunderground v.1.13,2013-03-09 17:04:00,
2013-03-09 11:06:00,34.2,32.7,29.80,SE,125,7.0,7.0,94,0.00,,,0.37,Wunderground v.1.13,2013-03-09 17:06:00,
2013-03-09 11:08:00,34.2,32.7,29.79,ESE,103,7.0,9.0,94,0.00,,,0.37,Wunderground v.1.13,2013-03-09 17:08:00,
2013-03-09 11:10:00,34.2,32.7,29.79,SE,126,7.0,7.0,94,0.00,,,0.37,Wunderground v.1.13,2013-03-09 17:10:00,
2013-03-09 11:11:00,34.2,32.7,29.79,ESE,110,8.0,10.0,94,0.00,,,0.37,Wunderground v.1.13,2013-03-09 17:11:00,
2013-03-09 11:15:00,34.2,32.7,29.79,ESE,115,8.0,10.0,94,0.00,,,0.37,Wunderground v.1.13,2013-03-09 17:15:00,
2013-03-09 11:17:00,34.3,32.8,29.79,SE,126,8.0,10.0,94,0.00,,,0.37,Wunderground v.1.13,2013-03-09 17:17:00,
2013-03-09 11:20:00,34.2,32.7,29.79,ESE,117,8.0,8.0,94,0.00,,,0.37,Wunderground v.1.13,2013-03-09 17:20:00,
2013-03-09 11:22:00,34.2,32.7,29.78,ESE,121,8.0,9.0,94,0.00,,,0.38,Wunderground v.1.13,2013-03-09 17:22:00,
2013-03-09 11:23:00,34.2,32.7,29.79,SE,127,8.0,9.0,94,0.00,,,0.38,Wunderground v.1.13,2013-03-09 17:23:00,
2013-03-09 11:27:00,34.2,32.7,29.78,ESE,119,8.0,9.0,94,0.00,,,0.38,Wunderground v.1.13,2013-03-09 17:27:00,
2013-03-09 11:28:00,34.2,32.7,29.78,ESE,106,8.0,9.0,94,0.00,,,0.38,Wunderground v.1.13,2013-03-09 17:28:00,
2013-03-09 11:33:00,34.2,32.7,29.78,ESE,117,8.0,9.0,94,0.00,,,0.38,Wunderground v.1.13,2013-03-09 17:33:00,
2013-03-09 11:35:00,34.2,32.7,29.78,ESE,119,7.0,7.0,94,0.00,,,0.38,Wunderground v.1.13,2013-03-09 17:35:00,
2013-03-09 11:36:00,34.3,32.8,29.78,SE,128,7.0,7.0,94,0.00,,,0.38,Wunderground v.1.13,2013-03-09 17:36:00,
2013-03-09 11:39:00,34.3,32.8,29.78,SE,125,7.0,9.0,94,0.00,,,0.38,Wunderground v.1.13,2013-03-09 17:39:00,
2013-03-09 11:41:00,34.2,32.7,29.78,ESE,123,7.0,7.0,94,0.00,,,0.38,Wunderground v.1.13,2013-03-09 17:41:00,
2013-03-09 11:45:00,34.3,32.8,29.78,SE,128,7.0,10.0,94,0.00,,,0.38,Wunderground v.1.13,2013-03-09 17:45:00,
2013-03-09 11:46:00,34.3,32.8,29.78,SE,124,7.0,10.0,94,0.00,,,0.38,Wunderground v.1.13,2013-03-09 17:46:00,
2013-03-09 11:49:00,34.3,32.8,29.77,ESE,122,7.0,10.0,94,0.00,,,0.38,Wunderground v.1.13,2013-03-09 17:49:00,
2013-03-09 11:51:00,34.3,32.8,29.77,ESE,122,7.0,7.0,94,0.00,,,0.38,Wunderground v.1.13,2013-03-09 17:51:00,
2013-03-09 11:53:00,34.3,32.8,29.77,ESE,123,7.0,8.0,94,0.00,,,0.38,Wunderground v.1.13,2013-03-09 17:53:00,
2013-03-09 11:57:00,34.3,32.8,29.77,ESE,119,7.0,7.0,94,0.00,,,0.38,Wunderground v.1.13,2013-03-09 17:57:00,
2013-03-09 11:58:00,34.3,32.8,29.77,ESE,114,6.0,7.0,94,0.00,,,0.38,Wunderground v.1.13,2013-03-09 17:58:00,
2013-03-09 11:59:00,34.3,32.8,29.77,ESE,121,6.0,7.0,94,0.00,,,0.38,Wunderground v.1.13,2013-03-09 17:59:00,
2013-03-09 12:02:00,34.3,32.8,29.77,SE,128,6.0,8.0,94,0.00,,,0.38,Wunderground v.1.13,2013-03-09 18:02:00,
2013-03-09 12:03:00,34.3,32.8,29.77,SE,128,6.0,8.0,94,0.00,,,0.38,Wunderground v.1.13,2013-03-09 18:03:00,
2013-03-09 12:06:00,34.4,32.9,29.77,ESE,123,6.0,7.0,94,0.00,,,0.38,Wunderground v.1.13,2013-03-09 18:06:00,
2013-03-09 12:09:00,34.4,32.9,29.76,SE,126,7.0,11.0,94,0.00,,,0.38,Wunderground v.1.13,2013-03-09 18:09:00,
2013-03-09 12:13:00,34.4,32.9,29.77,ESE,121,8.0,9.0,94,0.00,,,0.38,Wunderground v.1.13,2013-03-09 18:13:00,
2013-03-09 12:18:00,34.4,32.9,29.77,SE,125,7.0,10.0,94,0.00,,,0.38,Wunderground v.1.13,2013-03-09 18:18:00,
2013-03-09 12:20:00,34.4,32.9,29.76,ESE,107,7.0,12.0,94,0.00,,,0.38,Wunderground v.1.13,2013-03-09 18:20:00,
2013-03-09 12:22:00,34.4,32.9,29.76,SE,125,7.0,12.0,94,0.00,,,0.38,Wunderground v.1.13,2013-03-09 18:22:00,
2013-03-09 12:24:00,34.4,32.9,29.76,ESE,120,7.0,12.0,94,0.00,,,0.38,Wunderground v.1.13,2013-03-09 18:24:00,
2013-03-09 12:27:00,34.4,32.9,29.76,ESE,118,7.0,8.0,94,0.00,,,0.38,Wunderground v.1.13,2013-03-09 18:27:00,
2013-03-09 12:29:00,34.5,33.0,29.76,ESE,122,7.0,8.0,94,0.00,,,0.38,Wunderground v.1.13,2013-03-09 18:29:00,
2013-03-09 12:32:00,34.5,33.0,29.75,ESE,121,6.0,8.0,94,0.00,,,0.39,Wunderground v.1.13,2013-03-09 18:32:00,
2013-03-09 12:35:00,34.4,32.9,29.75,ESE,119,6.0,6.0,94,0.00,,,0.39,Wunderground v.1.13,2013-03-09 18:35:00,
2013-03-09 12:38:00,34.5,33.0,29.75,ESE,115,6.0,7.0,94,0.00,,,0.39,Wunderground v.1.13,2013-03-09 18:38:00,
2013-03-09 12:40:00,34.5,33.0,29.75,ESE,107,6.0,6.0,94,0.00,,,0.39,Wunderground v.1.13,2013-03-09 18:40:00,
2013-03-09 12:44:00,34.6,33.1,29.74,ESE,115,6.0,7.0,94,0.00,,,0.39,Wunderground v.1.13,2013-03-09 18:44:00,
2013-03-09 12:45:00,34.5,33.0,29.74,ESE,117,6.0,6.0,94,0.00,,,0.39,Wunderground v.1.13,2013-03-09 18:45:00,
2013-03-09 12:51:00,34.6,33.1,29.75,SE,124,6.0,7.0,94,0.04,,,0.40,Wunderground v.1.13,2013-03-09 18:51:00,
2013-03-09 12:54:00,34.6,33.1,29.75,ESE,119,6.0,7.0,94,0.09,,,0.41,Wunderground v.1.13,2013-03-09 18:54:00,
2013-03-09 12:56:00,34.6,33.1,29.76,ESE,119,6.0,7.0,94,0.09,,,0.41,Wunderground v.1.13,2013-03-09 18:56:00,
2013-03-09 12:57:00,34.6,33.1,29.76,ESE,121,6.0,7.0,94,0.09,,,0.41,Wunderground v.1.13,2013-03-09 18:57:00,
2013-03-09 13:03:00,34.6,33.1,29.75,SE,124,6.0,6.0,94,0.10,,,0.42,Wunderground v.1.13,2013-03-09 19:03:00,
2013-03-09 13:08:00,34.5,33.0,29.74,SE,126,6.0,7.0,94,0.20,,,0.44,Wunderground v.1.13,2013-03-09 19:08:00,
2013-03-09 13:09:00,34.5,33.0,29.74,ESE,119,6.0,7.0,94,0.20,,,0.44,Wunderground v.1.13,2013-03-09 19:09:00,
2013-03-09 13:11:00,34.6,33.1,29.74,ESE,108,6.0,8.0,94,0.19,,,0.45,Wunderground v.1.13,2013-03-09 19:11:00,
2013-03-09 13:14:00,34.6,33.1,29.74,ESE,117,6.0,8.0,94,0.17,,,0.46,Wunderground v.1.13,2013-03-09 19:14:00,
2013-03-09 13:15:00,34.6,33.1,29.74,ESE,119,6.0,6.0,94,0.17,,,0.46,Wunderground v.1.13,2013-03-09 19:15:00,
2013-03-09 13:19:00,34.6,33.1,29.74,ESE,113,6.0,6.0,94,0.19,,,0.47,Wunderground v.1.13,2013-03-09 19:19:00,
2013-03-09 13:20:00,34.6,33.1,29.74,ESE,117,6.0,6.0,94,0.15,,,0.47,Wunderground v.1.13,2013-03-09 19:20:00,
2013-03-09 13:22:00,34.6,33.1,29.73,ESE,114,6.0,7.0,94,0.13,,,0.48,Wunderground v.1.13,2013-03-09 19:22:00,
2013-03-09 13:27:00,34.6,33.1,29.74,ESE,109,6.0,6.0,94,0.18,,,0.49,Wunderground v.1.13,2013-03-09 19:27:00,
2013-03-09 13:28:00,34.6,33.1,29.74,ESE,109,5.0,6.0,94,0.16,,,0.49,Wunderground v.1.13,2013-03-09 19:28:00,
2013-03-09 13:29:00,34.5,33.0,29.74,ESE,109,5.0,6.0,94,0.12,,,0.49,Wunderground v.1.13,2013-03-09 19:29:00,
2013-03-09 13:30:00,34.5,33.0,29.73,ESE,115,5.0,6.0,94,0.12,,,0.50,Wunderground v.1.13,2013-03-09 19:30:00,
2013-03-09 13:32:00,34.5,33.0,29.74,ESE,115,5.0,6.0,94,0.12,,,0.50,Wunderground v.1.13,2013-03-09 19:32:00,
2013-03-09 13:36:00,34.6,33.1,29.73,East,94,4.0,7.0,94,0.09,,,0.50,Wunderground v.1.13,2013-03-09 19:36:00,
2013-03-09 13:38:00,34.7,33.2,29.73,East,100,4.0,7.0,94,0.07,,,0.51,Wunderground v.1.13,2013-03-09 19:38:00,
2013-03-09 13:44:00,34.8,33.2,29.72,ENE,74,5.0,6.0,94,0.07,,,0.51,Wunderground v.1.13,2013-03-09 19:44:00,
2013-03-09 13:45:00,34.8,33.2,29.72,ENE,69,5.0,5.0,94,0.07,,,0.51,Wunderground v.1.13,2013-03-09 19:45:00,
2013-03-09 13:48:00,34.8,33.2,29.71,SE,128,5.0,7.0,94,0.06,,,0.51,Wunderground v.1.13,2013-03-09 19:48:00,
2013-03-09 13:49:00,34.8,33.2,29.71,East,79,5.0,7.0,94,0.05,,,0.51,Wunderground v.1.13,2013-03-09 19:49:00,
2013-03-09 13:54:00,34.8,33.2,29.72,East,94,5.0,10.0,94,0.05,,,0.52,Wunderground v.1.13,2013-03-09 19:54:00,
2013-03-09 13:55:00,34.8,33.2,29.71,East,94,5.0,7.0,94,0.05,,,0.52,Wunderground v.1.13,2013-03-09 19:55:00,
2013-03-09 13:56:00,34.8,33.2,29.71,ESE,118,5.0,7.0,94,0.05,,,0.52,Wunderground v.1.13,2013-03-09 19:56:00,
2013-03-09 14:02:00,34.8,33.2,29.71,ESE,106,5.0,6.0,94,0.05,,,0.52,Wunderground v.1.13,2013-03-09 20:02:00,
2013-03-09 14:03:00,34.8,33.2,29.71,ESE,106,5.0,6.0,94,0.04,,,0.52,Wunderground v.1.13,2013-03-09 20:03:00,
2013-03-09 14:04:00,34.8,33.2,29.71,ESE,109,5.0,6.0,94,0.04,,,0.53,Wunderground v.1.13,2013-03-09 20:04:00,
2013-03-09 14:09:00,34.8,33.2,29.71,East,98,5.0,7.0,94,0.04,,,0.53,Wunderground v.1.13,2013-03-09 20:09:00,
2013-03-09 14:12:00,34.8,33.2,29.71,East,98,5.0,5.0,94,0.04,,,0.53,Wunderground v.1.13,2013-03-09 20:12:00,
2013-03-09 14:14:00,34.8,33.2,29.71,ESE,122,5.0,6.0,94,0.04,,,0.53,Wunderground v.1.13,2013-03-09 20:14:00,
2013-03-09 14:15:00,34.8,33.2,29.71,ESE,114,5.0,5.0,94,0.06,,,0.54,Wunderground v.1.13,2013-03-09 20:15:00,
2013-03-09 14:19:00,34.8,33.2,29.71,ESE,121,5.0,7.0,94,0.06,,,0.54,Wunderground v.1.13,2013-03-09 20:19:00,
2013-03-09 14:21:00,34.8,33.2,29.71,East,86,6.0,6.0,94,0.06,,,0.54,Wunderground v.1.13,2013-03-09 20:21:00,
2013-03-09 14:26:00,34.8,33.2,29.71,ESE,113,5.0,5.0,94,0.05,,,0.54,Wunderground v.1.13,2013-03-09 20:26:00,
2013-03-09 14:27:00,34.8,33.2,29.71,ESE,117,5.0,8.0,94,0.05,,,0.54,Wunderground v.1.13,2013-03-09 20:27:00,
2013-03-09 14:30:00,34.8,33.2,29.70,ESE,116,5.0,7.0,94,0.04,,,0.54,Wunderground v.1.13,2013-03-09 20:30:00,
2013-03-09 14:31:00,34.8,33.2,29.70,ESE,116,5.0,7.0,94,0.04,,,0.54,Wunderground v.1.13,2013-03-09 20:31:00,
2013-03-09 14:33:00,34.8,33.2,29.70,ESE,103,6.0,8.0,94,0.00,,,0.54,Wunderground v.1.13,2013-03-09 20:33:00,
2013-03-09 14:37:00,34.8,33.2,29.70,ESE,121,6.0,8.0,94,0.00,,,0.54,Wunderground v.1.13,2013-03-09 20:37:00,
2013-03-09 14:38:00,34.8,33.2,29.70,ESE,121,5.0,8.0,94,0.00,,,0.54,Wunderground v.1.13,2013-03-09 20:38:00,
2013-03-09 14:39:00,34.8,33.2,29.70,ESE,117,6.0,8.0,94,0.00,,,0.54,Wunderground v.1.13,2013-03-09 20:39:00,
2013-03-09 14:43:00,34.8,33.2,29.70,ESE,109,6.0,7.0,94,0.00,,,0.54,Wunderground v.1.13,2013-03-09 20:43:00,
2013-03-09 14:47:00,34.9,33.3,29.69,East,96,6.0,6.0,94,0.00,,,0.54,Wunderground v.1.13,2013-03-09 20:47:00,
2013-03-09 14:49:00,34.9,33.3,29.69,East,100,6.0,6.0,94,0.00,,,0.54,Wunderground v.1.13,2013-03-09 20:49:00,
2013-03-09 14:51:00,34.8,33.2,29.69,East,96,6.0,6.0,94,0.00,,,0.54,Wunderground v.1.13,2013-03-09 20:51:00,
2013-03-09 14:53:00,34.8,33.2,29.70,ESE,110,6.0,6.0,94,0.00,,,0.54,Wunderground v.1.13,2013-03-09 20:53:00,
2013-03-09 14:54:00,34.8,33.2,29.69,ESE,107,5.0,6.0,94,0.00,,,0.54,Wunderground v.1.13,2013-03-09 20:54:00,
2013-03-09 14:57:00,34.8,33.2,29.69,East,90,5.0,6.0,94,0.00,,,0.54,Wunderground v.1.13,2013-03-09 20:57:00,
2013-03-09 15:00:00,34.9,33.3,29.69,East,94,5.0,5.0,94,0.00,,,0.54,Wunderground v.1.13,2013-03-09 21:00:00,
2013-03-09 15:01:00,34.9,33.3,29.69,East,94,5.0,6.0,94,0.00,,,0.54,Wunderground v.1.13,2013-03-09 21:01:00,
2013-03-09 15:05:00,35.0,33.4,29.69,ESE,118,6.0,11.0,94,0.00,,,0.54,Wunderground v.1.13,2013-03-09 21:05:00,
2013-03-09 15:06:00,35.0,33.4,29.69,ESE,117,6.0,11.0,94,0.00,,,0.54,Wunderground v.1.13,2013-03-09 21:06:00,
2013-03-09 15:11:00,35.1,33.5,29.69,ENE,76,6.0,6.0,94,0.00,,,0.54,Wunderground v.1.13,2013-03-09 21:11:00,
2013-03-09 15:14:00,35.0,33.4,29.69,ENE,75,5.0,6.0,94,0.00,,,0.54,Wunderground v.1.13,2013-03-09 21:14:00,
2013-03-09 15:17:00,35.1,33.5,29.68,East,101,4.0,5.0,94,0.00,,,0.54,Wunderground v.1.13,2013-03-09 21:17:00,
2013-03-09 15:20:00,35.1,33.5,29.68,ESE,109,4.0,7.0,94,0.00,,,0.54,Wunderground v.1.13,2013-03-09 21:20:00,
2013-03-09 15:22:00,35.1,33.5,29.68,ESE,117,4.0,7.0,94,0.00,,,0.54,Wunderground v.1.13,2013-03-09 21:22:00,
2013-03-09 15:23:00,35.1,33.5,29.68,ESE,109,5.0,7.0,94,0.00,,,0.54,Wunderground v.1.13,2013-03-09 21:23:00,
2013-03-09 15:26:00,35.1,33.5,29.69,ESE,114,5.0,5.0,94,0.00,,,0.54,Wunderground v.1.13,2013-03-09 21:26:00,
2013-03-09 15:29:00,35.0,33.4,29.69,ESE,123,5.0,7.0,94,0.00,,,0.55,Wunderground v.1.13,2013-03-09 21:29:00,
2013-03-09 15:30:00,35.0,33.4,29.69,ESE,117,5.0,5.0,94,0.00,,,0.55,Wunderground v.1.13,2013-03-09 21:30:00,
2013-03-09 15:32:00,35.0,33.4,29.69,ESE,105,6.0,9.0,94,0.00,,,0.55,Wunderground v.1.13,2013-03-09 21:32:00,
2013-03-09 15:36:00,35.0,33.4,29.70,ESE,121,6.0,8.0,94,0.00,,,0.55,Wunderground v.1.13,2013-03-09 21:36:00,
2013-03-09 15:37:00,34.9,33.3,29.70,ESE,121,6.0,8.0,94,0.00,,,0.55,Wunderground v.1.13,2013-03-09 21:37:00,
2013-03-09 15:38:00,34.9,33.3,29.70,ESE,117,6.0,8.0,94,0.00,,,0.55,Wunderground v.1.13,2013-03-09 21:38:00,
2013-03-09 15:41:00,34.8,33.2,29.70,ESE,118,6.0,8.0,94,0.00,,,0.55,Wunderground v.1.13,2013-03-09 21:41:00,
2013-03-09 15:44:00,34.9,33.3,29.69,East,101,6.0,8.0,94,0.00,,,0.55,Wunderground v.1.13,2013-03-09 21:44:00,
2013-03-09 15:46:00,34.9,33.3,29.69,ESE,109,5.0,6.0,94,0.00,,,0.55,Wunderground v.1.13,2013-03-09 21:46:00,
2013-03-09 15:47:00,35.0,33.4,29.69,ESE,115,5.0,6.0,94,0.00,,,0.55,Wunderground v.1.13,2013-03-09 21:47:00,
2013-03-09 15:49:00,35.0,33.4,29.69,East,101,5.0,7.0,94,0.00,,,0.56,Wunderground v.1.13,2013-03-09 21:49:00,
2013-03-09 15:51:00,35.0,33.4,29.69,ESE,107,5.0,7.0,94,0.00,,,0.56,Wunderground v.1.13,2013-03-09 21:51:00,
2013-03-09 15:54:00,35.1,33.5,29.69,ESE,114,5.0,7.0,94,0.00,,,0.56,Wunderground v.1.13,2013-03-09 21:54:00,
2013-03-09 15:56:00,35.1,33.5,29.69,ESE,114,6.0,6.0,94,0.00,,,0.56,Wunderground v.1.13,2013-03-09 21:56:00,
2013-03-09 15:57:00,35.1,33.5,29.69,ESE,114,5.0,6.0,94,0.00,,,0.56,Wunderground v.1.13,2013-03-09 21:57:00,
2013-03-09 16:01:00,34.9,33.3,29.69,ESE,114,4.0,5.0,94,0.00,,,0.56,Wunderground v.1.13,2013-03-09 22:01:00,
2013-03-09 16:02:00,34.8,33.2,29.69,ESE,114,4.0,5.0,94,0.00,,,0.56,Wunderground v.1.13,2013-03-09 22:02:00,
2013-03-09 16:03:00,34.8,33.2,29.69,ESE,114,4.0,5.0,94,0.00,,,0.56,Wunderground v.1.13,2013-03-09 22:03:00,
2013-03-09 16:06:00,35.0,33.4,29.69,ESE,115,4.0,6.0,94,0.00,,,0.56,Wunderground v.1.13,2013-03-09 22:06:00,
2013-03-09 16:07:00,35.0,33.4,29.70,ESE,114,4.0,6.0,94,0.00,,,0.57,Wunderground v.1.13,2013-03-09 22:07:00,
2013-03-09 16:10:00,35.0,33.4,29.70,ESE,115,4.0,4.0,94,0.00,,,0.57,Wunderground v.1.13,2013-03-09 22:10:00,
2013-03-09 16:11:00,35.0,33.4,29.70,ESE,114,4.0,4.0,94,0.00,,,0.57,Wunderground v.1.13,2013-03-09 22:11:00,
2013-03-09 16:16:00,35.1,33.5,29.69,ESE,114,4.0,5.0,94,0.00,,,0.57,Wunderground v.1.13,2013-03-09 22:16:00,
2013-03-09 16:17:00,35.1,33.5,29.69,ESE,114,4.0,5.0,94,0.00,,,0.57,Wunderground v.1.13,2013-03-09 22:17:00,
2013-03-09 16:21:00,35.1,33.5,29.69,ESE,114,3.0,5.0,94,0.00,,,0.57,Wunderground v.1.13,2013-03-09 22:21:00,
2013-03-09 16:22:00,35.1,33.5,29.69,ESE,115,3.0,5.0,94,0.00,,,0.57,Wunderground v.1.13,2013-03-09 22:22:00,
2013-03-09 16:23:00,35.1,33.5,29.69,ESE,114,3.0,5.0,94,0.04,,,0.58,Wunderground v.1.13,2013-03-09 22:23:00,
2013-03-09 16:26:00,35.2,33.6,29.68,ENE,78,3.0,4.0,94,0.04,,,0.58,Wunderground v.1.13,2013-03-09 22:26:00,
2013-03-09 16:28:00,35.2,33.6,29.68,East,101,3.0,5.0,94,0.04,,,0.58,Wunderground v.1.13,2013-03-09 22:28:00,
2013-03-09 16:29:00,35.2,33.6,29.67,NE,56,3.0,5.0,94,0.04,,,0.58,Wunderground v.1.13,2013-03-09 22:29:00,
2013-03-09 16:30:00,35.1,33.5,29.67,ENE,74,4.0,4.0,94,0.04,,,0.58,Wunderground v.1.13,2013-03-09 22:30:00,
2013-03-09 16:34:00,35.0,33.4,29.67,East,79,4.0,7.0,94,0.06,,,0.59,Wunderground v.1.13,2013-03-09 22:34:00,
2013-03-09 16:35:00,35.0,33.4,29.67,ENE,68,4.0,4.0,94,0.06,,,0.59,Wunderground v.1.13,2013-03-09 22:35:00,
2013-03-09 16:36:00,35.0,33.4,29.67,East,85,4.0,6.0,94,0.06,,,0.59,Wunderground v.1.13,2013-03-09 22:36:00,
2013-03-09 16:38:00,34.9,33.3,29.67,ENE,78,4.0,6.0,94,0.06,,,0.59,Wunderground v.1.13,2013-03-09 22:38:00,
2013-03-09 16:40:00,34.9,33.3,29.67,East,84,4.0,5.0,94,0.06,,,0.59,Wunderground v.1.13,2013-03-09 22:40:00,
2013-03-09 16:42:00,35.0,33.4,29.68,East,92,4.0,5.0,94,0.07,,,0.60,Wunderground v.1.13,2013-03-09 22:42:00,
2013-03-09 16:44:00,35.0,33.4,29.68,East,92,4.0,5.0,94,0.07,,,0.60,Wunderground v.1.13,2013-03-09 22:44:00,
2013-03-09 16:47:00,35.1,33.5,29.67,East,82,4.0,6.0,94,0.07,,,0.60,Wunderground v.1.13,2013-03-09 22:47:00,
2013-03-09 16:48:00,35.1,33.5,29.67,ENE,64,4.0,6.0,94,0.07,,,0.60,Wunderground v.1.13,2013-03-09 22:48:00,
2013-03-09 16:52:00,35.1,33.5,29.67,East,94,3.0,4.0,94,0.05,,,0.60,Wunderground v.1.13,2013-03-09 22:52:00,
2013-03-09 16:54:00,35.1,33.5,29.67,East,94,3.0,4.0,94,0.04,,,0.60,Wunderground v.1.13,2013-03-09 22:54:00,
2013-03-09 17:00:00,35.0,33.4,29.68,East,94,2.0,2.0,94,0.00,,,0.60,Wunderground v.1.13,2013-03-09 23:00:00,
2013-03-09 17:02:00,35.0,33.4,29.68,East,94,1.0,2.0,94,0.00,,,0.60,Wunderground v.1.13,2013-03-09 23:02:00,
2013-03-09 17:06:00,34.9,33.3,29.68,East,94,1.0,1.0,94,0.00,,,0.60,Wunderground v.1.13,2013-03-09 23:06:00,
2013-03-09 17:08:00,34.9,33.3,29.68,East,94,1.0,1.0,94,0.00,,,0.60,Wunderground v.1.13,2013-03-09 23:08:00,
2013-03-09 17:10:00,34.8,33.2,29.68,East,94,1.0,1.0,94,0.00,,,0.60,Wunderground v.1.13,2013-03-09 23:10:00,
2013-03-09 17:14:00,34.8,33.2,29.68,East,94,1.0,2.0,94,0.00,,,0.60,Wunderground v.1.13,2013-03-09 23:14:00,
2013-03-09 17:16:00,34.8,33.2,29.69,East,94,1.0,1.0,94,0.00,,,0.60,Wunderground v.1.13,2013-03-09 23:16:00,
2013-03-09 17:21:00,34.8,33.2,29.68,East,94,1.0,3.0,94,0.00,,,0.60,Wunderground v.1.13,2013-03-09 23:21:00,
2013-03-09 17:24:00,34.8,33.2,29.68,East,94,2.0,4.0,94,0.00,,,0.60,Wunderground v.1.13,2013-03-09 23:24:00,
2013-03-09 17:27:00,34.8,33.2,29.68,East,94,3.0,3.0,94,0.00,,,0.60,Wunderground v.1.13,2013-03-09 23:27:00,
2013-03-09 17:30:00,34.8,33.2,29.69,East,94,2.0,2.0,94,0.00,,,0.60,Wunderground v.1.13,2013-03-09 23:30:00,
2013-03-09 17:31:00,34.8,33.2,29.69,East,94,2.0,2.0,94,0.00,,,0.60,Wunderground v.1.13,2013-03-09 23:31:00,
2013-03-09 17:37:00,34.8,33.2,29.69,East,94,2.0,4.0,94,0.00,,,0.60,Wunderground v.1.13,2013-03-09 23:37:00,
2013-03-09 17:38:00,34.8,33.2,29.69,East,94,2.0,4.0,94,0.00,,,0.60,Wunderground v.1.13,2013-03-09 23:38:00,
2013-03-09 17:43:00,34.8,33.2,29.69,East,94,2.0,3.0,94,0.00,,,0.60,Wunderground v.1.13,2013-03-09 23:43:00,
2013-03-09 17:45:00,34.8,33.2,29.69,East,94,2.0,2.0,94,0.00,,,0.60,Wunderground v.1.13,2013-03-09 23:45:00,
2013-03-09 17:50:00,34.8,33.2,29.68,East,94,2.0,2.0,94,0.00,,,0.61,Wunderground v.1.13,2013-03-09 23:50:00,
2013-03-09 17:52:00,34.8,33.2,29.68,East,94,2.0,3.0,94,0.00,,,0.61,Wunderground v.1.13,2013-03-09 23:52:00,
2013-03-09 17:56:00,34.8,33.2,29.68,East,94,2.0,3.0,94,0.00,,,0.61,Wunderground v.1.13,2013-03-09 23:56:00,
2013-03-09 17:59:00,34.8,33.2,29.69,East,94,2.0,3.0,94,0.00,,,0.61,Wunderground v.1.13,2013-03-09 23:59:00,
2013-03-09 18:00:00,34.8,33.2,29.69,East,94,2.0,2.0,94,0.00,,,0.61,Wunderground v.1.13,2013-03-10 00:00:00,
2013-03-09 18:02:00,34.8,33.2,29.69,East,94,2.0,2.0,94,0.00,,,0.61,Wunderground v.1.13,2013-03-10 00:02:00,
2013-03-09 18:06:00,34.8,33.2,29.69,East,94,1.0,1.0,94,0.00,,,0.61,Wunderground v.1.13,2013-03-10 00:06:00,
2013-03-09 18:08:00,34.8,33.2,29.69,East,94,1.0,1.0,94,0.00,,,0.61,Wunderground v.1.13,2013-03-10 00:08:00,
2013-03-09 18:12:00,34.8,33.2,29.69,East,94,0.0,2.0,94,0.00,,,0.61,Wunderground v.1.13,2013-03-10 00:12:00,
2013-03-09 18:15:00,34.8,33.2,29.69,East,94,0.0,1.0,94,0.00,,,0.61,Wunderground v.1.13,2013-03-10 00:15:00,
2013-03-09 18:17:00,34.8,33.2,29.69,East,94,1.0,2.0,94,0.00,,,0.61,Wunderground v.1.13,2013-03-10 00:17:00,
2013-03-09 18:18:00,34.8,33.2,29.69,East,94,1.0,2.0,94,0.00,,,0.61,Wunderground v.1.13,2013-03-10 00:18:00,
2013-03-09 18:24:00,34.8,33.5,29.69,East,94,1.0,1.0,95,0.00,,,0.61,Wunderground v.1.13,2013-03-10 00:24:00,
2013-03-09 18:25:00,34.8,33.5,29.69,East,94,1.0,1.0,95,0.00,,,0.61,Wunderground v.1.13,2013-03-10 00:25:00,
2013-03-09 18:30:00,34.8,33.5,29.69,East,94,0.0,0.0,95,0.00,,,0.61,Wunderground v.1.13,2013-03-10 00:30:00,
2013-03-09 18:36:00,34.8,33.5,29.69,East,94,0.0,0.0,95,0.00,,,0.61,Wunderground v.1.13,2013-03-10 00:36:00,
2013-03-09 18:38:00,34.8,33.5,29.69,East,94,0.0,0.0,95,0.00,,,0.61,Wunderground v.1.13,2013-03-10 00:38:00,
2013-03-09 18:41:00,34.8,33.5,29.70,East,94,0.0,0.0,95,0.00,,,0.61,Wunderground v.1.13,2013-03-10 00:41:00,
2013-03-09 18:43:00,34.8,33.5,29.70,East,94,0.0,0.0,95,0.00,,,0.61,Wunderground v.1.13,2013-03-10 00:43:00,
2013-03-09 18:47:00,34.8,33.5,29.70,East,94,0.0,0.0,95,0.00,,,0.62,Wunderground v.1.13,2013-03-10 00:47:00,
2013-03-09 18:49:00,34.7,33.4,29.69,East,94,0.0,0.0,95,0.00,,,0.62,Wunderground v.1.13,2013-03-10 00:49:00,
2013-03-09 18:53:00,34.5,33.0,29.70,East,94,0.0,0.0,94,0.00,,,0.62,Wunderground v.1.13,2013-03-10 00:53:00,
2013-03-09 18:56:00,34.4,32.9,29.70,East,94,0.0,0.0,94,0.00,,,0.62,Wunderground v.1.13,2013-03-10 00:56:00,
2013-03-09 18:59:00,34.4,32.9,29.70,East,94,0.0,0.0,94,0.00,,,0.62,Wunderground v.1.13,2013-03-10 00:59:00,
2013-03-09 19:03:00,34.4,32.9,29.70,East,94,0.0,2.0,94,0.00,,,0.62,Wunderground v.1.13,2013-03-10 01:03:00,
2013-03-09 19:04:00,34.4,32.9,29.70,East,94,0.0,2.0,94,0.00,,,0.62,Wunderground v.1.13,2013-03-10 01:04:00,
2013-03-09 19:10:00,34.5,33.2,29.70,East,94,0.0,0.0,95,0.00,,,0.62,Wunderground v.1.13,2013-03-10 01:10:00,
2013-03-09 19:11:00,34.5,33.2,29.70,East,94,0.0,0.0,95,0.00,,,0.62,Wunderground v.1.13,2013-03-10 01:11:00,
2013-03-09 19:16:00,34.5,33.0,29.70,East,94,0.0,0.0,94,0.00,,,0.62,Wunderground v.1.13,2013-03-10 01:16:00,
2013-03-09 19:17:00,34.5,33.2,29.70,East,94,0.0,0.0,95,0.00,,,0.62,Wunderground v.1.13,2013-03-10 01:17:00,
2013-03-09 19:21:00,34.5,33.2,29.70,East,94,0.0,0.0,95,0.00,,,0.62,Wunderground v.1.13,2013-03-10 01:21:00,
2013-03-09 19:26:00,34.6,33.3,29.70,East,94,0.0,0.0,95,0.00,,,0.62,Wunderground v.1.13,2013-03-10 01:26:00,
2013-03-09 19:29:00,34.6,33.3,29.69,East,94,0.0,0.0,95,0.00,,,0.62,Wunderground v.1.13,2013-03-10 01:29:00,
2013-03-09 19:30:00,34.6,33.3,29.70,East,94,0.0,0.0,95,0.00,,,0.62,Wunderground v.1.13,2013-03-10 01:30:00,
2013-03-09 19:31:00,34.6,33.3,29.70,East,94,0.0,0.0,95,0.00,,,0.62,Wunderground v.1.13,2013-03-10 01:31:00,
2013-03-09 19:36:00,34.4,33.1,29.70,East,94,0.0,0.0,95,0.00,,,0.62,Wunderground v.1.13,2013-03-10 01:36:00,
2013-03-09 19:38:00,34.5,33.2,29.70,East,94,0.0,0.0,95,0.00,,,0.62,Wunderground v.1.13,2013-03-10 01:38:00,
2013-03-09 19:43:00,34.5,33.2,29.70,East,94,0.0,0.0,95,0.00,,,0.62,Wunderground v.1.13,2013-03-10 01:43:00,
2013-03-09 19:45:00,34.5,33.2,29.71,East,94,0.0,0.0,95,0.00,,,0.62,Wunderground v.1.13,2013-03-10 01:45:00,
2013-03-09 19:49:00,34.5,33.2,29.71,East,94,0.0,0.0,95,0.00,,,0.62,Wunderground v.1.13,2013-03-10 01:49:00,
2013-03-09 19:51:00,34.5,33.2,29.70,East,94,0.0,0.0,95,0.00,,,0.62,Wunderground v.1.13,2013-03-10 01:51:00,
2013-03-09 19:54:00,34.5,33.2,29.71,East,94,0.0,0.0,95,0.00,,,0.62,Wunderground v.1.13,2013-03-10 01:54:00,
2013-03-09 19:57:00,34.5,33.2,29.71,East,94,0.0,0.0,95,0.00,,,0.62,Wunderground v.1.13,2013-03-10 01:57:00,
2013-03-09 20:00:00,34.4,33.1,29.70,East,94,0.0,0.0,95,0.00,,,0.62,Wunderground v.1.13,2013-03-10 02:00:00,
2013-03-09 20:03:00,34.4,33.1,29.70,East,94,0.0,0.0,95,0.00,,,0.62,Wunderground v.1.13,2013-03-10 02:03:00,
2013-03-09 20:06:00,34.4,33.1,29.71,East,94,0.0,0.0,95,0.00,,,0.62,Wunderground v.1.13,2013-03-10 02:06:00,
2013-03-09 20:09:00,34.4,33.1,29.71,East,94,0.0,0.0,95,0.00,,,0.62,Wunderground v.1.13,2013-03-10 02:09:00,
2013-03-09 20:13:00,34.3,33.0,29.71,East,94,0.0,0.0,95,0.00,,,0.62,Wunderground v.1.13,2013-03-10 02:13:00,
2013-03-09 20:14:00,34.3,33.0,29.71,East,94,0.0,0.0,95,0.00,,,0.62,Wunderground v.1.13,2013-03-10 02:14:00,
2013-03-09 20:20:00,34.2,32.9,29.71,East,94,0.0,1.0,95,0.00,,,0.62,Wunderground v.1.13,2013-03-10 02:20:00,
2013-03-09 20:21:00,34.2,32.9,29.71,East,94,0.0,1.0,95,0.00,,,0.62,Wunderground v.1.13,2013-03-10 02:21:00,
2013-03-09 20:26:00,34.1,32.8,29.71,East,94,1.0,2.0,95,0.00,,,0.62,Wunderground v.1.13,2013-03-10 02:26:00,
2013-03-09 20:28:00,34.1,32.8,29.72,East,94,1.0,2.0,95,0.00,,,0.62,Wunderground v.1.13,2013-03-10 02:28:00,
2013-03-09 20:30:00,34.1,32.8,29.72,East,94,1.0,1.0,95,0.00,,,0.62,Wunderground v.1.13,2013-03-10 02:30:00,
2013-03-09 20:32:00,34.1,32.8,29.72,East,94,1.0,2.0,95,0.00,,,0.62,Wunderground v.1.13,2013-03-10 02:32:00,
2013-03-09 20:35:00,34.1,32.8,29.72,East,94,1.0,1.0,95,0.00,,,0.63,Wunderground v.1.13,2013-03-10 02:35:00,
2013-03-09 20:36:00,34.1,32.8,29.72,East,94,1.0,1.0,95,0.00,,,0.63,Wunderground v.1.13,2013-03-10 02:36:00,
2013-03-09 20:41:00,34.1,32.8,29.72,East,94,0.0,1.0,95,0.00,,,0.63,Wunderground v.1.13,2013-03-10 02:41:00,
2013-03-09 20:43:00,34.1,32.8,29.72,East,94,0.0,1.0,95,0.00,,,0.63,Wunderground v.1.13,2013-03-10 02:43:00,
2013-03-09 20:44:00,34.1,32.8,29.72,East,94,0.0,1.0,95,0.00,,,0.63,Wunderground v.1.13,2013-03-10 02:44:00,
2013-03-09 20:49:00,34.1,32.8,29.71,East,94,0.0,2.0,95,0.00,,,0.63,Wunderground v.1.13,2013-03-10 02:49:00,
2013-03-09 20:52:00,34.1,32.8,29.71,East,94,1.0,1.0,95,0.00,,,0.63,Wunderground v.1.13,2013-03-10 02:52:00,
2013-03-09 20:53:00,34.1,32.8,29.71,East,94,1.0,2.0,95,0.00,,,0.63,Wunderground v.1.13,2013-03-10 02:53:00,
2013-03-09 20:55:00,34.1,32.8,29.71,East,94,1.0,2.0,95,0.00,,,0.63,Wunderground v.1.13,2013-03-10 02:55:00,
2013-03-09 20:59:00,34.2,32.9,29.72,East,94,1.0,1.0,95,0.00,,,0.63,Wunderground v.1.13,2013-03-10 02:59:00,
2013-03-09 21:00:00,34.2,32.9,29.72,East,94,1.0,1.0,95,0.00,,,0.63,Wunderground v.1.13,2013-03-10 03:00:00,
2013-03-09 21:02:00,34.2,32.9,29.72,East,94,1.0,1.0,95,0.00,,,0.63,Wunderground v.1.13,2013-03-10 03:02:00,
2013-03-09 21:05:00,34.2,32.9,29.72,East,94,1.0,1.0,95,0.00,,,0.63,Wunderground v.1.13,2013-03-10 03:05:00,
2013-03-09 21:08:00,34.1,32.8,29.72,East,94,1.0,1.0,95,0.00,,,0.63,Wunderground v.1.13,2013-03-10 03:08:00,
2013-03-09 21:14:00,34.1,32.8,29.73,East,94,1.0,2.0,95,0.00,,,0.63,Wunderground v.1.13,2013-03-10 03:14:00,
2013-03-09 21:15:00,34.1,32.8,29.73,East,94,1.0,1.0,95,0.00,,,0.63,Wunderground v.1.13,2013-03-10 03:15:00,
2013-03-09 21:21:00,34.0,32.7,29.73,East,94,1.0,1.0,95,0.00,,,0.63,Wunderground v.1.13,2013-03-10 03:21:00,
2013-03-09 21:23:00,34.0,32.7,29.73,East,94,1.0,1.0,95,0.00,,,0.63,Wunderground v.1.13,2013-03-10 03:23:00,
2013-03-09 21:28:00,33.9,32.6,29.74,East,94,0.0,1.0,95,0.00,,,0.63,Wunderground v.1.13,2013-03-10 03:28:00,
2013-03-09 21:30:00,33.9,32.6,29.74,East,94,1.0,1.0,95,0.00,,,0.63,Wunderground v.1.13,2013-03-10 03:30:00,
2013-03-09 21:31:00,33.9,32.6,29.74,East,94,1.0,1.0,95,0.00,,,0.63,Wunderground v.1.13,2013-03-10 03:31:00,
2013-03-09 21:34:00,33.9,32.6,29.74,East,94,1.0,2.0,95,0.00,,,0.63,Wunderground v.1.13,2013-03-10 03:34:00,
2013-03-09 21:38:00,33.8,32.5,29.73,East,94,1.0,2.0,95,0.00,,,0.63,Wunderground v.1.13,2013-03-10 03:38:00,
2013-03-09 21:40:00,33.8,32.5,29.73,NW,314,1.0,4.0,95,0.00,,,0.63,Wunderground v.1.13,2013-03-10 03:40:00,
2013-03-09 21:43:00,33.8,32.5,29.73,NNW,343,1.0,5.0,95,0.00,,,0.63,Wunderground v.1.13,2013-03-10 03:43:00,
2013-03-09 21:46:00,33.8,32.5,29.73,NNW,332,2.0,2.0,95,0.00,,,0.63,Wunderground v.1.13,2013-03-10 03:46:00,
2013-03-09 21:49:00,33.8,32.5,29.73,NNE,30,2.0,2.0,95,0.00,,,0.63,Wunderground v.1.13,2013-03-10 03:49:00,
2013-03-09 21:50:00,33.7,32.4,29.73,NW,305,2.0,6.0,95,0.00,,,0.63,Wunderground v.1.13,2013-03-10 03:50:00,
2013-03-09 21:56:00,33.6,32.3,29.73,NW,311,2.0,2.0,95,0.00,,,0.63,Wunderground v.1.13,2013-03-10 03:56:00,
2013-03-09 21:58:00,33.6,32.3,29.73,WNW,298,2.0,4.0,95,0.00,,,0.63,Wunderground v.1.13,2013-03-10 03:58:00,
2013-03-09 22:01:00,33.6,32.3,29.73,NW,322,1.0,2.0,95,0.00,,,0.63,Wunderground v.1.13,2013-03-10 04:01:00,
2013-03-09 22:06:00,33.5,32.2,29.74,WNW,295,2.0,2.0,95,0.00,,,0.63,Wunderground v.1.13,2013-03-10 04:06:00,
2013-03-09 22:07:00,33.5,32.2,29.74,WNW,295,2.0,2.0,95,0.00,,,0.63,Wunderground v.1.13,2013-03-10 04:07:00,
2013-03-09 22:13:00,33.4,32.1,29.75,NNW,342,2.0,5.0,95,0.00,,,0.63,Wunderground v.1.13,2013-03-10 04:13:00,
2013-03-09 22:18:00,33.4,32.1,29.75,WNW,300,2.0,4.0,95,0.00,,,0.63,Wunderground v.1.13,2013-03-10 04:18:00,
2013-03-09 22:19:00,33.4,32.1,29.75,WNW,300,2.0,4.0,95,0.00,,,0.63,Wunderground v.1.13,2013-03-10 04:19:00,
2013-03-09 22:23:00,33.4,32.1,29.74,NW,305,2.0,2.0,95,0.00,,,0.63,Wunderground v.1.13,2013-03-10 04:23:00,
2013-03-09 22:26:00,33.4,32.1,29.75,NW,306,2.0,2.0,95,0.00,,,0.63,Wunderground v.1.13,2013-03-10 04:26:00,
2013-03-09 22:30:00,33.4,32.1,29.75,WNW,284,2.0,2.0,95,0.00,,,0.63,Wunderground v.1.13,2013-03-10 04:30:00,
2013-03-09 22:35:00,33.3,32.0,29.75,NW,311,1.0,2.0,95,0.00,,,0.63,Wunderground v.1.13,2013-03-10 04:35:00,
2013-03-09 22:36:00,33.3,32.0,29.75,NW,311,2.0,3.0,95,0.00,,,0.63,Wunderground v.1.13,2013-03-10 04:36:00,
2013-03-09 22:41:00,33.3,32.0,29.75,NW,309,2.0,2.0,95,0.00,,,0.63,Wunderground v.1.13,2013-03-10 04:41:00,
2013-03-09 22:42:00,33.3,32.0,29.75,NW,309,2.0,2.0,95,0.00,,,0.63,Wunderground v.1.13,2013-03-10 04:42:00,
2013-03-09 22:45:00,33.3,32.0,29.76,NW,304,2.0,4.0,95,0.00,,,0.63,Wunderground v.1.13,2013-03-10 04:45:00,
2013-03-09 22:48:00,33.2,31.9,29.76,NW,311,2.0,4.0,95,0.00,,,0.63,Wunderground v.1.13,2013-03-10 04:48:00,
2013-03-09 22:52:00,33.2,31.9,29.76,NW,306,3.0,3.0,95,0.00,,,0.63,Wunderground v.1.13,2013-03-10 04:52:00,
2013-03-09 22:53:00,33.2,31.9,29.76,NW,306,3.0,3.0,95,0.00,,,0.63,Wunderground v.1.13,2013-03-10 04:53:00,
2013-03-09 22:58:00,33.2,31.9,29.76,WNW,300,3.0,5.0,95,0.00,,,0.63,Wunderground v.1.13,2013-03-10 04:58:00,
2013-03-09 22:59:00,33.2,31.9,29.76,WNW,300,2.0,5.0,95,0.00,,,0.63,Wunderground v.1.13,2013-03-10 04:59:00,
2013-03-09 23:01:00,33.2,31.9,29.76,WNW,299,2.0,2.0,95,0.00,,,0.63,Wunderground v.1.13,2013-03-10 05:01:00,
2013-03-09 23:02:00,33.2,31.9,29.76,WNW,299,2.0,2.0,95,0.00,,,0.63,Wunderground v.1.13,2013-03-10 05:02:00,
2013-03-09 23:05:00,33.2,31.9,29.77,WNW,298,1.0,2.0,95,0.00,,,0.63,Wunderground v.1.13,2013-03-10 05:05:00,
2013-03-09 23:08:00,33.2,31.9,29.76,WNW,298,1.0,2.0,95,0.00,,,0.63,Wunderground v.1.13,2013-03-10 05:08:00,
2013-03-09 23:10:00,33.2,31.9,29.76,WNW,298,1.0,2.0,95,0.00,,,0.63,Wunderground v.1.13,2013-03-10 05:10:00,
2013-03-09 23:12:00,33.1,31.8,29.76,WNW,298,1.0,2.0,95,0.00,,,0.63,Wunderground v.1.13,2013-03-10 05:12:00,
2013-03-09 23:14:00,33.2,31.9,29.76,WNW,298,1.0,2.0,95,0.00,,,0.63,Wunderground v.1.13,2013-03-10 05:14:00,
2013-03-09 23:15:00,33.1,31.8,29.76,WNW,298,1.0,1.0,95,0.00,,,0.63,Wunderground v.1.13,2013-03-10 05:15:00,
2013-03-09 23:18:00,33.2,31.9,29.76,West,260,1.0,5.0,95,0.00,,,0.63,Wunderground v.1.13,2013-03-10 05:18:00,
2013-03-09 23:20:00,33.2,31.9,29.77,West,263,1.0,4.0,95,0.00,,,0.63,Wunderground v.1.13,2013-03-10 05:20:00,
2013-03-09 23:22:00,33.2,31.9,29.77,West,263,2.0,6.0,95,0.00,,,0.63,Wunderground v.1.13,2013-03-10 05:22:00,
2013-03-09 23:26:00,33.2,31.9,29.77,West,263,3.0,3.0,95,0.00,,,0.63,Wunderground v.1.13,2013-03-10 05:26:00,
2013-03-09 23:29:00,33.2,31.9,29.77,West,261,4.0,5.0,95,0.00,,,0.63,Wunderground v.1.13,2013-03-10 05:29:00,
2013-03-09 23:30:00,33.2,31.9,29.77,West,261,4.0,4.0,95,0.00,,,0.63,Wunderground v.1.13,2013-03-10 05:30:00,
2013-03-09 23:31:00,33.2,31.9,29.77,West,261,4.0,4.0,95,0.00,,,0.63,Wunderground v.1.13,2013-03-10 05:31:00,
2013-03-09 23:34:00,33.2,31.9,29.77,West,261,4.0,4.0,95,0.00,,,0.63,Wunderground v.1.13,2013-03-10 05:34:00,
2013-03-09 23:36:00,33.2,31.9,29.77,West,261,4.0,5.0,95,0.00,,,0.63,Wunderground v.1.13,2013-03-10 05:36:00,
2013-03-09 23:38:00,33.1,31.8,29.77,West,261,4.0,5.0,95,0.00,,,0.63,Wunderground v.1.13,2013-03-10 05:38:00,
2013-03-09 23:39:00,33.1,31.8,29.77,West,261,4.0,5.0,95,0.00,,,0.63,Wunderground v.1.13,2013-03-10 05:39:00,
2013-03-09 23:45:00,33.1,31.8,29.77,West,267,3.0,3.0,95,0.00,,,0.63,Wunderground v.1.13,2013-03-10 05:45:00,
2013-03-09 23:46:00,33.2,31.9,29.78,West,267,3.0,3.0,95,0.00,,,0.63,Wunderground v.1.13,2013-03-10 05:46:00,
2013-03-09 23:47:00,33.2,31.9,29.78,West,267,2.0,3.0,95,0.00,,,0.63,Wunderground v.1.13,2013-03-10 05:47:00,
2013-03-09 23:49:00,33.2,31.9,29.78,West,266,2.0,3.0,95,0.00,,,0.63,Wunderground v.1.13,2013-03-10 05:49:00,
2013-03-09 23:52:00,33.2,31.9,29.78,West,267,2.0,4.0,95,0.00,,,0.63,Wunderground v.1.13,2013-03-10 05:52:00,
2013-03-09 23:53:00,33.2,31.9,29.78,West,267,2.0,4.0,95,0.00,,,0.63,Wunderground v.1.13,2013-03-10 05:53:00,
2013-03-09 23:54:00,33.2,31.9,29.79,West,266,2.0,6.0,95,0.00,,,0.63,Wunderground v.1.13,2013-03-10 05:54:00,
2013-03-09 23:58:00,33.2,31.9,29.79,West,267,3.0,4.0,95,0.00,,,0.63,Wunderground v.1.13,2013-03-10 05:58:00,